Observation data for Caprock Canyons on 04/24/2019      Previous  Date  Next       Current Mesonet Observations  Soil Data  Daily Summary Page  Observations in Plain Language
KQU1 240500Z 34006KT 11/09 A3003 RMK A01 T01100085  RH  085%=      5-min Rain = 0
KQU1 240501Z 34006KT 11/09 A3003 RMK A01 T01110086  RH  084%=      5-min Rain = 0
KQU1 240502Z 34007KT 11/09 A3003 RMK A01 T01120085  RH  084%=      5-min Rain = 0
KQU1 240503Z 34007KT 11/09 A3003 RMK A01 T01130085  RH  083%=      5-min Rain = 0
KQU1 240504Z 34006KT 11/09 A3003 RMK A01 T01130085  RH  083%=      5-min Rain = 0
KQU1 240505Z 34006KT 11/09 A3003 RMK A01 T01130085  RH  083%=      5-min Rain = 0
KQU1 240506Z 34007KT 11/08 A3003 RMK A01 T01140084  RH  082%=      5-min Rain = 0
KQU1 240507Z 34007KT 12/08 A3003 RMK A01 T01150084  RH  082%=      5-min Rain = 0
KQU1 240508Z 34009KT 12/08 A3003 RMK A01 T01150083  RH  081%=      5-min Rain = 0
KQU1 240509Z 34008KT 12/08 A3003 RMK A01 T01160083  RH  080%=      5-min Rain = 0
KQU1 240510Z 34006KT 12/08 A3003 RMK A01 T01170083  RH  079%=      5-min Rain = 0
KQU1 240511Z 34008KT 12/08 A3002 RMK A01 T01180082  RH  079%=      5-min Rain = 0
KQU1 240512Z 34007KT 12/08 A3002 RMK A01 T01180082  RH  078%=      5-min Rain = 0
KQU1 240513Z 34007KT 12/08 A3002 RMK A01 T01190082  RH  078%=      5-min Rain = 0
KQU1 240514Z 35006KT 12/08 A3002 RMK A01 T01190082  RH  078%=      5-min Rain = 0
KQU1 240515Z 35005KT 12/08 A3002 RMK A01 T01190082  RH  078%=      5-min Rain = 0
KQU1 240516Z 35005KT 12/08 A3002 RMK A01 T01190082  RH  078%=      5-min Rain = 0
KQU1 240517Z 01005KT 12/08 A3002 RMK A01 T01190082  RH  078%=      5-min Rain = 0
KQU1 240518Z 35004KT 12/08 A3003 RMK A01 T01190082  RH  078%=      5-min Rain = 0
KQU1 240519Z 00004KT 12/08 A3003 RMK A01 T01190082  RH  078%=      5-min Rain = 0
KQU1 240520Z 35004KT 12/08 A3003 RMK A01 T01190081  RH  078%=      5-min Rain = 0
KQU1 240521Z 00005KT 12/08 A3003 RMK A01 T01190082  RH  078%=      5-min Rain = 0
KQU1 240522Z 35003KT 12/08 A3003 RMK A01 T01190082  RH  078%=      5-min Rain = 0
KQU1 240523Z 36004KT 12/08 A3003 RMK A01 T01180081  RH  078%=      5-min Rain = 0
KQU1 240524Z 36005KT 12/08 A3002 RMK A01 T01180080  RH  078%=      5-min Rain = 0
KQU1 240525Z 00005KT 12/08 A3002 RMK A01 T01180080  RH  078%=      5-min Rain = 0
KQU1 240526Z 01006KT 12/08 A3002 RMK A01 T01180080  RH  077%=      5-min Rain = 0
KQU1 240527Z 36004KT 12/08 A3002 RMK A01 T01180080  RH  078%=      5-min Rain = 0
KQU1 240528Z 35004KT 12/08 A3002 RMK A01 T01170080  RH  078%=      5-min Rain = 0
KQU1 240529Z 36004KT 12/08 A3002 RMK A01 T01170079  RH  078%=      5-min Rain = 0
KQU1 240530Z 36003KT 12/08 A3002 RMK A01 T01170079  RH  078%=      5-min Rain = 0
KQU1 240531Z 35004KT 12/08 A3002 RMK A01 T01170079  RH  078%=      5-min Rain = 0
KQU1 240532Z 03002KT 12/08 A3002 RMK A01 T01160079  RH  078%=      5-min Rain = 0
KQU1 240533Z 00002KT 12/08 A3002 RMK A01 T01160079  RH  078%=      5-min Rain = 0
KQU1 240534Z 00002KT 12/08 A3002 RMK A01 T01160079  RH  078%=      5-min Rain = 0
KQU1 240535Z 02002KT 12/08 A3002 RMK A01 T01160078  RH  078%=      5-min Rain = 0
KQU1 240536Z 02002KT 12/08 A3002 RMK A01 T01150079  RH  078%=      5-min Rain = 0
KQU1 240537Z 04003KT 12/08 A3002 RMK A01 T01150079  RH  078%=      5-min Rain = 0
KQU1 240538Z 01002KT 12/08 A3002 RMK A01 T01150079  RH  078%=      5-min Rain = 0
KQU1 240539Z 01002KT 12/08 A3002 RMK A01 T01150079  RH  078%=      5-min Rain = 0
KQU1 240540Z 01001KT 12/08 A3002 RMK A01 T01150079  RH  079%=      5-min Rain = 0
KQU1 240541Z 03002KT 12/08 A3003 RMK A01 T01150079  RH  079%=      5-min Rain = 0
KQU1 240542Z 01002KT 12/08 A3002 RMK A01 T01150079  RH  079%=      5-min Rain = 0
KQU1 240543Z 36001KT 11/08 A3002 RMK A01 T01140079  RH  079%=      5-min Rain = 0
KQU1 240544Z 00000KT 11/08 A3002 RMK A01 T01140080  RH  079%=      5-min Rain = 0
KQU1 240545Z 00002KT 11/08 A3002 RMK A01 T01140080  RH  080%=      5-min Rain = 0
KQU1 240546Z 04001KT 11/08 A3002 RMK A01 T01140081  RH  080%=      5-min Rain = 0
KQU1 240547Z 03001KT 11/08 A3002 RMK A01 T01130081  RH  080%=      5-min Rain = 0
KQU1 240548Z 35000KT 11/08 A3002 RMK A01 T01130081  RH  080%=      5-min Rain = 0
KQU1 240549Z 00000KT 11/08 A3002 RMK A01 T01130080  RH  080%=      5-min Rain = 0
KQU1 240550Z 34001KT 11/08 A3002 RMK A01 T01120080  RH  080%=      5-min Rain = 0
KQU1 240551Z 34000KT 11/08 A3002 RMK A01 T01120080  RH  081%=      5-min Rain = 0
KQU1 240552Z 00000KT 11/08 A3002 RMK A01 T01120080  RH  081%=      5-min Rain = 0
KQU1 240553Z 00000KT 11/08 A3002 RMK A01 T01110080  RH  081%=      5-min Rain = 0
KQU1 240554Z 11000KT 11/08 A3002 RMK A01 T01110080  RH  081%=      5-min Rain = 0
KQU1 240555Z 11001KT 11/08 A3002 RMK A01 T01100079  RH  081%=      5-min Rain = 0
KQU1 240556Z 11001KT 11/08 A3002 RMK A01 T01090079  RH  082%=      5-min Rain = 0
KQU1 240557Z 12001KT 11/08 A3002 RMK A01 T01080079  RH  082%=      5-min Rain = 0
KQU1 240558Z 09001KT 11/08 A3002 RMK A01 T01070078  RH  082%=      5-min Rain = 0
KQU1 240559Z 05000KT 11/08 A3002 RMK A01 T01070078  RH  083%=      5-min Rain = 0
KQU1 240600Z 08000KT 11/08 A3002 RMK A01 T01070078  RH  083%=      5-min Rain = 0
KQU1 240601Z 06001KT 11/08 A3002 RMK A01 T01060078  RH  083%=      5-min Rain = 0
KQU1 240602Z 05001KT 11/08 A3002 RMK A01 T01060079  RH  083%=      5-min Rain = 0
KQU1 240603Z 00000KT 11/08 A3002 RMK A01 T01060079  RH  083%=      5-min Rain = 0
KQU1 240604Z 03000KT 11/08 A3002 RMK A01 T01060079  RH  083%=      5-min Rain = 0
KQU1 240605Z 01001KT 11/08 A3002 RMK A01 T01060079  RH  083%=      5-min Rain = 0
KQU1 240606Z 00001KT 11/08 A3002 RMK A01 T01050079  RH  084%=      5-min Rain = 0
KQU1 240607Z 01001KT 11/08 A3002 RMK A01 T01050080  RH  084%=      5-min Rain = 0
KQU1 240608Z 00003KT 11/08 A3002 RMK A01 T01050079  RH  084%=      5-min Rain = 0
KQU1 240609Z 00003KT 11/08 A3002 RMK A01 T01060078  RH  083%=      5-min Rain = 0
KQU1 240610Z 36002KT 11/08 A3002 RMK A01 T01070078  RH  082%=      5-min Rain = 0
KQU1 240611Z 36002G7KT 11/08 A3002 RMK A01 T01080079  RH  082%=      5-min Rain = 0
KQU1 240612Z 35006KT 11/08 A3002 RMK A01 T01080078  RH  081%=      5-min Rain = 0
KQU1 240613Z 35005KT 11/08 A3001 RMK A01 T01090076  RH  080%=      5-min Rain = 0
KQU1 240614Z 36005KT 11/08 A3001 RMK A01 T01100075  RH  079%=      5-min Rain = 0
KQU1 240615Z 35008KT 11/07 A3001 RMK A01 T01110074  RH  078%=      5-min Rain = 0
KQU1 240616Z 35007KT 11/07 A3001 RMK A01 T01110074  RH  078%=      5-min Rain = 0
KQU1 240617Z 35008KT 11/07 A3001 RMK A01 T01120073  RH  077%=      5-min Rain = 0
KQU1 240618Z 35006KT 11/07 A3001 RMK A01 T01130072  RH  076%=      5-min Rain = 0
KQU1 240619Z 35008G14KT 11/07 A3001 RMK A01 T01130071  RH  075%=      5-min Rain = 0
KQU1 240620Z 36005KT 11/07 A3001 RMK A01 T01130069  RH  074%=      5-min Rain = 0
KQU1 240621Z 35007KT 11/07 A3001 RMK A01 T01130069  RH  074%=      5-min Rain = 0
KQU1 240622Z 35009KT 11/07 A3001 RMK A01 T01130068  RH  074%=      5-min Rain = 0
KQU1 240623Z 34005KT 11/07 A3001 RMK A01 T01130067  RH  073%=      5-min Rain = 0
KQU1 240624Z 34006G13KT 11/07 A3001 RMK A01 T01130067  RH  073%=      5-min Rain = 0
KQU1 240625Z 35008KT 11/07 A3001 RMK A01 T01130066  RH  073%=      5-min Rain = 0
KQU1 240626Z 34009G14KT 11/07 A30 RMK A01 T01130065  RH  072%=      5-min Rain = 0
KQU1 240627Z 34008KT 11/07 A30 RMK A01 T01130065  RH  072%=      5-min Rain = 0
KQU1 240628Z 34010KT 11/06 A30 RMK A01 T01130063  RH  071%=      5-min Rain = 0
KQU1 240629Z 34011KT 11/06 A30 RMK A01 T01130062  RH  071%=      5-min Rain = 0
KQU1 240630Z 34013KT 11/06 A30 RMK A01 T01130060  RH  070%=      5-min Rain = 0
KQU1 240631Z 34010KT 11/06 A30 RMK A01 T01140059  RH  069%=      5-min Rain = 0
KQU1 240632Z 34010KT 11/06 A30 RMK A01 T01140059  RH  069%=      5-min Rain = 0
KQU1 240633Z 34007KT 11/06 A30 RMK A01 T01140059  RH  069%=      5-min Rain = 0
KQU1 240634Z 33009KT 11/06 A30 RMK A01 T01140060  RH  070%=      5-min Rain = 0
KQU1 240635Z 35009KT 11/06 A30 RMK A01 T01130060  RH  070%=      5-min Rain = 0
KQU1 240636Z 35008KT 11/06 A30 RMK A01 T01130061  RH  070%=      5-min Rain = 0
KQU1 240637Z 34008KT 11/06 A30 RMK A01 T01130060  RH  070%=      5-min Rain = 0
KQU1 240638Z 34008KT 11/06 A30 RMK A01 T01130060  RH  070%=      5-min Rain = 0
KQU1 240639Z 34012KT 11/06 A30 RMK A01 T01120059  RH  070%=      5-min Rain = 0
KQU1 240640Z 34010KT 11/06 A30 RMK A01 T01120058  RH  069%=      5-min Rain = 0
KQU1 240641Z 34009KT 11/06 A30 RMK A01 T01120059  RH  070%=      5-min Rain = 0
KQU1 240642Z 34013KT 11/06 A30 RMK A01 T01120057  RH  069%=      5-min Rain = 0
KQU1 240643Z 35009KT 11/06 A2999 RMK A01 T01120057  RH  069%=      5-min Rain = 0
KQU1 240644Z 35011KT 11/06 A2999 RMK A01 T01120058  RH  069%=      5-min Rain = 0
KQU1 240645Z 35008KT 11/06 A2999 RMK A01 T01110058  RH  070%=      5-min Rain = 0
KQU1 240646Z 34011KT 11/06 A2999 RMK A01 T01110057  RH  069%=      5-min Rain = 0
KQU1 240647Z 35010KT 11/06 A2999 RMK A01 T01110056  RH  069%=      5-min Rain = 0
KQU1 240648Z 35007G12KT 11/06 A2999 RMK A01 T01110056  RH  069%=      5-min Rain = 0
KQU1 240649Z 35007KT 11/06 A30 RMK A01 T01110057  RH  069%=      5-min Rain = 0
KQU1 240650Z 34009KT 11/06 A30 RMK A01 T01100056  RH  069%=      5-min Rain = 0
KQU1 240651Z 35008KT 11/06 A30 RMK A01 T01100056  RH  069%=      5-min Rain = 0
KQU1 240652Z 35006KT 11/06 A30 RMK A01 T01100057  RH  070%=      5-min Rain = 0
KQU1 240653Z 35006KT 11/06 A30 RMK A01 T01090057  RH  070%=      5-min Rain = 0
KQU1 240654Z 34005KT 11/06 A30 RMK A01 T01090057  RH  070%=      5-min Rain = 0
KQU1 240655Z 00005KT 11/06 A3001 RMK A01 T01090057  RH  070%=      5-min Rain = 0
KQU1 240656Z 36005KT 11/06 A3001 RMK A01 T01090058  RH  071%=      5-min Rain = 0
KQU1 240657Z 35005KT 11/06 A3001 RMK A01 T01080058  RH  071%=      5-min Rain = 0
KQU1 240658Z 35002KT 11/06 A3001 RMK A01 T01080058  RH  071%=      5-min Rain = 0
KQU1 240659Z 00005KT 11/06 A3001 RMK A01 T01070058  RH  072%=      5-min Rain = 0
KQU1 240700Z 35005KT 11/06 A3001 RMK A01 T01070058  RH  072%=      5-min Rain = 0
KQU1 240701Z 35005KT 11/06 A3001 RMK A01 T01070058  RH  072%=      5-min Rain = 0
KQU1 240702Z 35005KT 11/06 A3001 RMK A01 T01060058  RH  072%=      5-min Rain = 0
KQU1 240703Z 35006KT 11/06 A3001 RMK A01 T01060059  RH  073%=      5-min Rain = 0
KQU1 240704Z 34005KT 11/06 A3001 RMK A01 T01050058  RH  073%=      5-min Rain = 0
KQU1 240705Z 35006KT 11/06 A3001 RMK A01 T01050059  RH  073%=      5-min Rain = 0
KQU1 240706Z 34005KT 10/06 A3001 RMK A01 T01040059  RH  073%=      5-min Rain = 0
KQU1 240707Z 35006KT 10/06 A3001 RMK A01 T01040059  RH  074%=      5-min Rain = 0
KQU1 240708Z 35006KT 10/06 A3001 RMK A01 T01030059  RH  074%=      5-min Rain = 0
KQU1 240709Z 36005KT 10/06 A3001 RMK A01 T01030059  RH  074%=      5-min Rain = 0
KQU1 240710Z 36005KT 10/06 A3001 RMK A01 T01020059  RH  075%=      5-min Rain = 0
KQU1 240711Z 00004KT 10/06 A3001 RMK A01 T01020060  RH  075%=      5-min Rain = 0
KQU1 240712Z 36005KT 10/06 A3001 RMK A01 T01020060  RH  075%=      5-min Rain = 0
KQU1 240713Z 00004KT 10/06 A3001 RMK A01 T01020060  RH  075%=      5-min Rain = 0
KQU1 240714Z 01004KT 10/06 A3001 RMK A01 T01020060  RH  075%=      5-min Rain = 0
KQU1 240715Z 36003KT 10/06 A3001 RMK A01 T01020060  RH  075%=      5-min Rain = 0
KQU1 240716Z 00002KT 10/06 A3001 RMK A01 T01020061  RH  076%=      5-min Rain = 0
KQU1 240717Z 00002KT 10/06 A3001 RMK A01 T01010061  RH  076%=      5-min Rain = 0
KQU1 240718Z 01004KT 10/06 A3001 RMK A01 T01010061  RH  076%=      5-min Rain = 0
KQU1 240719Z 01003KT 10/06 A3001 RMK A01 T01010061  RH  076%=      5-min Rain = 0
KQU1 240720Z 01002KT 10/06 A3001 RMK A01 T01000061  RH  077%=      5-min Rain = 0
KQU1 240721Z 35003KT 10/06 A3001 RMK A01 T01000061  RH  077%=      5-min Rain = 0
KQU1 240722Z 00003KT 10/06 A3001 RMK A01 T00990061  RH  077%=      5-min Rain = 0
KQU1 240723Z 34003KT 10/06 A3001 RMK A01 T00990062  RH  077%=      5-min Rain = 0
KQU1 240724Z 35003KT 10/06 A3001 RMK A01 T00990061  RH  077%=      5-min Rain = 0
KQU1 240725Z 35003KT 10/06 A3002 RMK A01 T00990061  RH  077%=      5-min Rain = 0
KQU1 240726Z 34003KT 10/06 A3002 RMK A01 T00980061  RH  077%=      5-min Rain = 0
KQU1 240727Z 33002KT 10/06 A3002 RMK A01 T00980061  RH  078%=      5-min Rain = 0
KQU1 240728Z 33002KT 10/06 A3002 RMK A01 T00970060  RH  078%=      5-min Rain = 0
KQU1 240729Z 34001KT 10/06 A3003 RMK A01 T00970060  RH  078%=      5-min Rain = 0
KQU1 240730Z 36001KT 10/06 A3003 RMK A01 T00960060  RH  078%=      5-min Rain = 0
KQU1 240731Z 34002KT 10/06 A3003 RMK A01 T00960060  RH  078%=      5-min Rain = 0
KQU1 240732Z 01002KT 10/06 A3003 RMK A01 T00960060  RH  078%=      5-min Rain = 0
KQU1 240733Z 01003KT 10/06 A3003 RMK A01 T00960060  RH  078%=      5-min Rain = 0
KQU1 240734Z 01003KT 10/06 A3003 RMK A01 T00970060  RH  078%=      5-min Rain = 0
KQU1 240735Z 02002KT 10/06 A3003 RMK A01 T00970060  RH  078%=      5-min Rain = 0
KQU1 240736Z 02002KT 10/06 A3003 RMK A01 T00980060  RH  077%=      5-min Rain = 0
KQU1 240737Z 03002KT 10/06 A3003 RMK A01 T00980060  RH  077%=      5-min Rain = 0
KQU1 240738Z 01003KT 10/06 A3003 RMK A01 T00980061  RH  077%=      5-min Rain = 0
KQU1 240739Z 02002KT 10/06 A3003 RMK A01 T00980061  RH  077%=      5-min Rain = 0
KQU1 240740Z 03002KT 10/06 A3003 RMK A01 T00990061  RH  077%=      5-min Rain = 0
KQU1 240741Z 03003KT 10/06 A3003 RMK A01 T00980061  RH  077%=      5-min Rain = 0
KQU1 240742Z 01002KT 10/06 A3003 RMK A01 T00980061  RH  078%=      5-min Rain = 0
KQU1 240743Z 02001KT 10/06 A3004 RMK A01 T00980061  RH  078%=      5-min Rain = 0
KQU1 240744Z 06001KT 10/06 A3004 RMK A01 T00980061  RH  078%=      5-min Rain = 0
KQU1 240745Z 06002KT 10/06 A3004 RMK A01 T00980062  RH  078%=      5-min Rain = 0
KQU1 240746Z 06002KT 10/06 A3004 RMK A01 T00970062  RH  079%=      5-min Rain = 0
KQU1 240747Z 10002KT 10/06 A3004 RMK A01 T00970062  RH  079%=      5-min Rain = 0
KQU1 240748Z 14004KT 10/06 A3004 RMK A01 T00950060  RH  079%=      5-min Rain = 0
KQU1 240749Z 14004KT 09/06 A3004 RMK A01 T00930059  RH  079%=      5-min Rain = 0
KQU1 240750Z 15003KT 09/06 A3003 RMK A01 T00910058  RH  080%=      5-min Rain = 0
KQU1 240751Z 15003KT 09/06 A3003 RMK A01 T00890058  RH  081%=      5-min Rain = 0
KQU1 240752Z 14002KT 09/06 A3003 RMK A01 T00870058  RH  082%=      5-min Rain = 0
KQU1 240753Z 15001KT 09/06 A3003 RMK A01 T00860058  RH  083%=      5-min Rain = 0
KQU1 240754Z 15001KT 09/06 A3003 RMK A01 T00850058  RH  083%=      5-min Rain = 0
KQU1 240755Z 15000KT 09/06 A3003 RMK A01 T00850058  RH  084%=      5-min Rain = 0
KQU1 240756Z 00000KT 08/06 A3003 RMK A01 T00840059  RH  084%=      5-min Rain = 0
KQU1 240757Z 00000KT 08/06 A3003 RMK A01 T00840059  RH  084%=      5-min Rain = 0
KQU1 240758Z 00000KT 08/06 A3003 RMK A01 T00830059  RH  085%=      5-min Rain = 0
KQU1 240759Z 05000KT 08/06 A3002 RMK A01 T00830059  RH  085%=      5-min Rain = 0
KQU1 240800Z 05001KT 08/06 A3002 RMK A01 T00830059  RH  085%=      5-min Rain = 0
KQU1 240801Z 05002KT 08/06 A3002 RMK A01 T00830060  RH  086%=      5-min Rain = 0
KQU1 240802Z 05001KT 08/06 A3002 RMK A01 T00820060  RH  086%=      5-min Rain = 0
KQU1 240803Z 04001KT 08/06 A3002 RMK A01 T00820060  RH  086%=      5-min Rain = 0
KQU1 240804Z 04000KT 08/06 A3002 RMK A01 T00810060  RH  087%=      5-min Rain = 0
KQU1 240805Z 00000KT 08/06 A3002 RMK A01 T00810061  RH  087%=      5-min Rain = 0
KQU1 240806Z 33001KT 08/06 A3002 RMK A01 T00810061  RH  087%=      5-min Rain = 0
KQU1 240807Z 32002KT 08/06 A3002 RMK A01 T00800061  RH  088%=      5-min Rain = 0
KQU1 240808Z 32003KT 08/06 A3002 RMK A01 T00800062  RH  088%=      5-min Rain = 0
KQU1 240809Z 32003KT 08/06 A3002 RMK A01 T00800063  RH  089%=      5-min Rain = 0
KQU1 240810Z 32003KT 08/06 A3002 RMK A01 T00810064  RH  089%=      5-min Rain = 0
KQU1 240811Z 32003KT 08/06 A3002 RMK A01 T00810064  RH  089%=      5-min Rain = 0
KQU1 240812Z 32003KT 08/06 A3002 RMK A01 T00800064  RH  089%=      5-min Rain = 0
KQU1 240813Z 31003KT 08/06 A3002 RMK A01 T00800064  RH  089%=      5-min Rain = 0
KQU1 240814Z 30003KT 08/06 A3002 RMK A01 T00800064  RH  090%=      5-min Rain = 0
KQU1 240815Z 29003KT 08/06 A3002 RMK A01 T00800064  RH  090%=      5-min Rain = 0
KQU1 240816Z 29003KT 08/06 A3002 RMK A01 T00800064  RH  090%=      5-min Rain = 0
KQU1 240817Z 28003KT 08/06 A3002 RMK A01 T00790064  RH  090%=      5-min Rain = 0
KQU1 240818Z 27004KT 08/06 A3002 RMK A01 T00790064  RH  090%=      5-min Rain = 0
KQU1 240819Z 28004KT 08/06 A3002 RMK A01 T00790064  RH  090%=      5-min Rain = 0
KQU1 240820Z 28004KT 08/06 A3002 RMK A01 T00790064  RH  090%=      5-min Rain = 0
KQU1 240821Z 28004KT 08/06 A3002 RMK A01 T00780064  RH  091%=      5-min Rain = 0
KQU1 240822Z 28004KT 08/06 A3002 RMK A01 T00780064  RH  091%=      5-min Rain = 0
KQU1 240823Z 28004KT 08/06 A3002 RMK A01 T00780064  RH  091%=      5-min Rain = 0
KQU1 240824Z 29004KT 08/06 A3002 RMK A01 T00780064  RH  091%=      5-min Rain = 0
KQU1 240825Z 30004KT 08/06 A3002 RMK A01 T00780064  RH  091%=      5-min Rain = 0
KQU1 240826Z 30005KT 08/07 A3002 RMK A01 T00780065  RH  091%=      5-min Rain = 0
KQU1 240827Z 30005KT 08/07 A3002 RMK A01 T00780065  RH  091%=      5-min Rain = 0
KQU1 240828Z 30005KT 08/07 A3002 RMK A01 T00780065  RH  091%=      5-min Rain = 0
KQU1 240829Z 30005KT 08/07 A3002 RMK A01 T00780065  RH  091%=      5-min Rain = 0
KQU1 240830Z 29005KT 08/07 A3002 RMK A01 T00780065  RH  091%=      5-min Rain = 0
KQU1 240831Z 29005KT 08/07 A3002 RMK A01 T00780065  RH  091%=      5-min Rain = 0
KQU1 240832Z 29005KT 08/07 A3002 RMK A01 T00780065  RH  091%=      5-min Rain = 0
KQU1 240833Z 29005KT 08/07 A3002 RMK A01 T00780065  RH  091%=      5-min Rain = 0
KQU1 240834Z 29005KT 08/07 A3001 RMK A01 T00780065  RH  091%=      5-min Rain = 0
KQU1 240835Z 29005KT 08/07 A3001 RMK A01 T00780065  RH  091%=      5-min Rain = 0
KQU1 240836Z 29005KT 08/07 A3001 RMK A01 T00780065  RH  092%=      5-min Rain = 0
KQU1 240837Z 30005KT 08/07 A3001 RMK A01 T00780065  RH  092%=      5-min Rain = 0
KQU1 240838Z 30005KT 08/07 A3001 RMK A01 T00780065  RH  092%=      5-min Rain = 0
KQU1 240839Z 30005KT 08/07 A3001 RMK A01 T00780065  RH  092%=      5-min Rain = 0
KQU1 240840Z 30005KT 08/07 A3001 RMK A01 T00780065  RH  092%=      5-min Rain = 0
KQU1 240841Z 30005KT 08/07 A3001 RMK A01 T00770065  RH  092%=      5-min Rain = 0
KQU1 240842Z 30005KT 08/07 A3001 RMK A01 T00780065  RH  092%=      5-min Rain = 0
KQU1 240843Z 31005KT 08/07 A3001 RMK A01 T00780066  RH  092%=      5-min Rain = 0
KQU1 240844Z 31006KT 08/07 A3001 RMK A01 T00780066  RH  092%=      5-min Rain = 0
KQU1 240845Z 31007KT 08/07 A3001 RMK A01 T00780066  RH  092%=      5-min Rain = 0
KQU1 240846Z 31007KT 08/07 A3001 RMK A01 T00780065  RH  092%=      5-min Rain = 0
KQU1 240847Z 31007KT 08/07 A3001 RMK A01 T00780065  RH  091%=      5-min Rain = 0
KQU1 240848Z 31007KT 08/07 A30 RMK A01 T00790065  RH  091%=      5-min Rain = 0
KQU1 240849Z 31007KT 08/07 A30 RMK A01 T00790065  RH  091%=      5-min Rain = 0
KQU1 240850Z 31007KT 08/07 A30 RMK A01 T00800065  RH  090%=      5-min Rain = 0
KQU1 240851Z 31007KT 08/07 A30 RMK A01 T00800065  RH  090%=      5-min Rain = 0
KQU1 240852Z 30007KT 08/06 A30 RMK A01 T00800064  RH  090%=      5-min Rain = 0
KQU1 240853Z 31007KT 08/06 A30 RMK A01 T00800064  RH  090%=      5-min Rain = 0
KQU1 240854Z 31007KT 08/06 A30 RMK A01 T00800064  RH  090%=      5-min Rain = 0
KQU1 240855Z 31006KT 08/06 A30 RMK A01 T00800064  RH  090%=      5-min Rain = 0
KQU1 240856Z 31006KT 08/06 A30 RMK A01 T00800064  RH  090%=      5-min Rain = 0
KQU1 240857Z 31006KT 08/06 A30 RMK A01 T00800064  RH  090%=      5-min Rain = 0
KQU1 240858Z 31006KT 08/06 A30 RMK A01 T00800064  RH  090%=      5-min Rain = 0
KQU1 240859Z 31006KT 08/06 A30 RMK A01 T00800064  RH  090%=      5-min Rain = 0
KQU1 240900Z 31006KT 08/06 A30 RMK A01 T00800064  RH  089%=      5-min Rain = 0
KQU1 240901Z 31006KT 08/06 A30 RMK A01 T00800064  RH  089%=      5-min Rain = 0
KQU1 240902Z 31006KT 08/06 A3001 RMK A01 T00800064  RH  089%=      5-min Rain = 0
KQU1 240903Z 31006KT 08/06 A3001 RMK A01 T00800064  RH  089%=      5-min Rain = 0
KQU1 240904Z 31005KT 08/06 A3001 RMK A01 T00800064  RH  089%=      5-min Rain = 0
KQU1 240905Z 30005KT 08/06 A3001 RMK A01 T00800064  RH  089%=      5-min Rain = 0
KQU1 240906Z 31005KT 08/06 A3001 RMK A01 T00800064  RH  089%=      5-min Rain = 0
KQU1 240907Z 31005KT 08/06 A3001 RMK A01 T00800064  RH  089%=      5-min Rain = 0
KQU1 240908Z 30004KT 08/06 A3001 RMK A01 T00800064  RH  089%=      5-min Rain = 0
KQU1 240909Z 30004KT 08/06 A3001 RMK A01 T00800063  RH  089%=      5-min Rain = 0
KQU1 240910Z 31004KT 08/06 A3001 RMK A01 T00800064  RH  089%=      5-min Rain = 0
KQU1 240911Z 30004KT 08/06 A3001 RMK A01 T00810064  RH  089%=      5-min Rain = 0
KQU1 240912Z 30004KT 08/06 A3001 RMK A01 T00810064  RH  089%=      5-min Rain = 0
KQU1 240913Z 31004KT 08/06 A30 RMK A01 T00810064  RH  089%=      5-min Rain = 0
KQU1 240914Z 31004KT 08/06 A30 RMK A01 T00810064  RH  090%=      5-min Rain = 0
KQU1 240915Z 31004KT 08/06 A30 RMK A01 T00810064  RH  089%=      5-min Rain = 0
KQU1 240916Z 31004KT 08/06 A30 RMK A01 T00800063  RH  089%=      5-min Rain = 0
KQU1 240917Z 31004KT 08/06 A30 RMK A01 T00800063  RH  089%=      5-min Rain = 0
KQU1 240918Z 30004KT 08/06 A30 RMK A01 T00800063  RH  089%=      5-min Rain = 0
KQU1 240919Z 30004KT 08/06 A30 RMK A01 T00800063  RH  089%=      5-min Rain = 0
KQU1 240920Z 31004KT 08/06 A30 RMK A01 T00800063  RH  089%=      5-min Rain = 0
KQU1 240921Z 31004KT 08/06 A30 RMK A01 T00800063  RH  089%=      5-min Rain = 0
KQU1 240922Z 31004KT 08/06 A30 RMK A01 T00800063  RH  089%=      5-min Rain = 0
KQU1 240923Z 31004KT 08/06 A30 RMK A01 T00800063  RH  089%=      5-min Rain = 0
KQU1 240924Z 31004KT 08/06 A30 RMK A01 T00800063  RH  089%=      5-min Rain = 0
KQU1 240925Z 32004KT 08/06 A2999 RMK A01 T00800063  RH  089%=      5-min Rain = 0
KQU1 240926Z 31004KT 08/06 A2999 RMK A01 T00800063  RH  089%=      5-min Rain = 0
KQU1 240927Z 31004KT 08/06 A2999 RMK A01 T00790063  RH  090%=      5-min Rain = 0
KQU1 240928Z 31003KT 08/06 A2999 RMK A01 T00790063  RH  090%=      5-min Rain = 0
KQU1 240929Z 31003KT 08/06 A30 RMK A01 T00790063  RH  090%=      5-min Rain = 0
KQU1 240930Z 31003KT 08/06 A30 RMK A01 T00790063  RH  090%=      5-min Rain = 0
KQU1 240931Z 31002KT 08/06 A30 RMK A01 T00790063  RH  090%=      5-min Rain = 0
KQU1 240932Z 31003KT 08/06 A30 RMK A01 T00790063  RH  090%=      5-min Rain = 0
KQU1 240933Z 31003KT 08/06 A30 RMK A01 T00790063  RH  090%=      5-min Rain = 0
KQU1 240934Z 31003KT 08/06 A30 RMK A01 T00790063  RH  090%=      5-min Rain = 0
KQU1 240935Z 31003KT 08/06 A30 RMK A01 T00790063  RH  090%=      5-min Rain = 0
KQU1 240936Z 30003KT 08/06 A30 RMK A01 T00790063  RH  090%=      5-min Rain = 0
KQU1 240937Z 30003KT 08/06 A30 RMK A01 T00790064  RH  090%=      5-min Rain = 0
KQU1 240938Z 31003KT 08/06 A30 RMK A01 T00790064  RH  090%=      5-min Rain = 0
KQU1 240939Z 30004KT 08/06 A30 RMK A01 T00790064  RH  090%=      5-min Rain = 0
KQU1 240940Z 30004KT 08/06 A30 RMK A01 T00790064  RH  090%=      5-min Rain = 0
KQU1 240941Z 30004KT 08/06 A30 RMK A01 T00790064  RH  090%=      5-min Rain = 0
KQU1 240942Z 29004KT 08/06 A30 RMK A01 T00790064  RH  090%=      5-min Rain = 0
KQU1 240943Z 29004KT 08/06 A30 RMK A01 T00790063  RH  090%=      5-min Rain = 0
KQU1 240944Z 29004KT 08/06 A30 RMK A01 T00780063  RH  090%=      5-min Rain = 0
KQU1 240945Z 29004KT 08/06 A30 RMK A01 T00780063  RH  090%=      5-min Rain = 0
KQU1 240946Z 29004KT 08/06 A30 RMK A01 T00780063  RH  090%=      5-min Rain = 0
KQU1 240947Z 29004KT 08/06 A30 RMK A01 T00770062  RH  090%=      5-min Rain = 0
KQU1 240948Z 30004KT 08/06 A30 RMK A01 T00770062  RH  090%=      5-min Rain = 0
KQU1 240949Z 30004KT 08/06 A30 RMK A01 T00770062  RH  090%=      5-min Rain = 0
KQU1 240950Z 30004KT 08/06 A30 RMK A01 T00770062  RH  090%=      5-min Rain = 0
KQU1 240951Z 30005KT 08/06 A30 RMK A01 T00770062  RH  090%=      5-min Rain = 0
KQU1 240952Z 30005KT 08/06 A30 RMK A01 T00770062  RH  091%=      5-min Rain = 0
KQU1 240953Z 30006KT 08/06 A30 RMK A01 T00760063  RH  091%=      5-min Rain = 0
KQU1 240954Z 30006KT 08/06 A30 RMK A01 T00760063  RH  091%=      5-min Rain = 0
KQU1 240955Z 30006KT 08/06 A30 RMK A01 T00760063  RH  092%=      5-min Rain = 0
KQU1 240956Z 30006KT 08/06 A30 RMK A01 T00770064  RH  092%=      5-min Rain = 0
KQU1 240957Z 30006KT 08/06 A30 RMK A01 T00770064  RH  092%=      5-min Rain = 0
KQU1 240958Z 30006KT 08/06 A30 RMK A01 T00770064  RH  092%=      5-min Rain = 0
KQU1 240959Z 30006KT 08/06 A30 RMK A01 T00770063  RH  091%=      5-min Rain = 0
KQU1 241000Z 30006KT 08/06 A30 RMK A01 T00760063  RH  091%=      5-min Rain = 0
KQU1 241001Z 30007KT 08/06 A30 RMK A01 T00760062  RH  091%=      5-min Rain = 0
KQU1 241002Z 30007KT 08/06 A30 RMK A01 T00760062  RH  091%=      5-min Rain = 0
KQU1 241003Z 30006KT 08/06 A30 RMK A01 T00760062  RH  091%=      5-min Rain = 0
KQU1 241004Z 30007KT 08/06 A30 RMK A01 T00750062  RH  091%=      5-min Rain = 0
KQU1 241005Z 30007KT 08/06 A2999 RMK A01 T00760062  RH  091%=      5-min Rain = 0
KQU1 241006Z 30007KT 08/06 A2999 RMK A01 T00760062  RH  091%=      5-min Rain = 0
KQU1 241007Z 29007KT 08/06 A2999 RMK A01 T00760062  RH  091%=      5-min Rain = 0
KQU1 241008Z 30007KT 08/06 A2999 RMK A01 T00760062  RH  091%=      5-min Rain = 0
KQU1 241009Z 29007KT 08/06 A30 RMK A01 T00760062  RH  091%=      5-min Rain = 0
KQU1 241010Z 29006KT 08/06 A30 RMK A01 T00760062  RH  091%=      5-min Rain = 0
KQU1 241011Z 29005KT 08/06 A30 RMK A01 T00760062  RH  091%=      5-min Rain = 0
KQU1 241012Z 28005KT 08/06 A30 RMK A01 T00760062  RH  091%=      5-min Rain = 0
KQU1 241013Z 29005KT 08/06 A30 RMK A01 T00760063  RH  091%=      5-min Rain = 0
KQU1 241014Z 29005KT 08/06 A30 RMK A01 T00760062  RH  091%=      5-min Rain = 0
KQU1 241015Z 29005KT 08/06 A30 RMK A01 T00750062  RH  091%=      5-min Rain = 0
KQU1 241016Z 29005KT 08/06 A30 RMK A01 T00750062  RH  091%=      5-min Rain = 0
KQU1 241017Z 29005KT 08/06 A30 RMK A01 T00750062  RH  091%=      5-min Rain = 0
KQU1 241018Z 29005KT 08/06 A30 RMK A01 T00750062  RH  091%=      5-min Rain = 0
KQU1 241019Z 29005KT 08/06 A30 RMK A01 T00750062  RH  091%=      5-min Rain = 0
KQU1 241020Z 29005KT 08/06 A30 RMK A01 T00750062  RH  091%=      5-min Rain = 0
KQU1 241021Z 29006KT 08/06 A30 RMK A01 T00750062  RH  091%=      5-min Rain = 0
KQU1 241022Z 29005KT 08/06 A30 RMK A01 T00760062  RH  091%=      5-min Rain = 0
KQU1 241023Z 30006KT 08/06 A30 RMK A01 T00760063  RH  091%=      5-min Rain = 0
KQU1 241024Z 30006KT 08/06 A30 RMK A01 T00760063  RH  092%=      5-min Rain = 0
KQU1 241025Z 30006KT 08/06 A30 RMK A01 T00750062  RH  092%=      5-min Rain = 0
KQU1 241026Z 30006KT 08/06 A30 RMK A01 T00750062  RH  091%=      5-min Rain = 0
KQU1 241027Z 30006KT 08/06 A30 RMK A01 T00750062  RH  091%=      5-min Rain = 0
KQU1 241028Z 30007KT 08/06 A30 RMK A01 T00750062  RH  091%=      5-min Rain = 0
KQU1 241029Z 30007KT 08/06 A30 RMK A01 T00750062  RH  091%=      5-min Rain = 0
KQU1 241030Z 30007KT 08/06 A30 RMK A01 T00750062  RH  091%=      5-min Rain = 0
KQU1 241031Z 30007KT 08/06 A30 RMK A01 T00750062  RH  091%=      5-min Rain = 0
KQU1 241032Z 30007KT 08/06 A30 RMK A01 T00750062  RH  091%=      5-min Rain = 0
KQU1 241033Z 30007KT 08/06 A30 RMK A01 T00750061  RH  091%=      5-min Rain = 0
KQU1 241034Z 30007KT 08/06 A30 RMK A01 T00750061  RH  091%=      5-min Rain = 0
KQU1 241035Z 30007KT 08/06 A2999 RMK A01 T00750061  RH  091%=      5-min Rain = 0
KQU1 241036Z 30006KT 08/06 A2999 RMK A01 T00750061  RH  091%=      5-min Rain = 0
KQU1 241037Z 30006KT 08/06 A30 RMK A01 T00760061  RH  090%=      5-min Rain = 0
KQU1 241038Z 30006KT 08/06 A30 RMK A01 T00760061  RH  090%=      5-min Rain = 0
KQU1 241039Z 30006KT 08/06 A30 RMK A01 T00760061  RH  090%=      5-min Rain = 0
KQU1 241040Z 29006KT 08/06 A30 RMK A01 T00770061  RH  090%=      5-min Rain = 0
KQU1 241041Z 29006KT 08/06 A30 RMK A01 T00760061  RH  090%=      5-min Rain = 0
KQU1 241042Z 29005KT 08/06 A30 RMK A01 T00760061  RH  090%=      5-min Rain = 0
KQU1 241043Z 29005KT 08/06 A30 RMK A01 T00760061  RH  090%=      5-min Rain = 0
KQU1 241044Z 29005KT 08/06 A30 RMK A01 T00750061  RH  091%=      5-min Rain = 0
KQU1 241045Z 29004KT 08/06 A30 RMK A01 T00750061  RH  091%=      5-min Rain = 0
KQU1 241046Z 28004KT 08/06 A30 RMK A01 T00750061  RH  091%=      5-min Rain = 0
KQU1 241047Z 28004KT 08/06 A30 RMK A01 T00750061  RH  091%=      5-min Rain = 0
KQU1 241048Z 29004KT 08/06 A2999 RMK A01 T00750061  RH  091%=      5-min Rain = 0
KQU1 241049Z 29004KT 08/06 A2999 RMK A01 T00750060  RH  091%=      5-min Rain = 0
KQU1 241050Z 29005KT 08/06 A2999 RMK A01 T00750060  RH  091%=      5-min Rain = 0
KQU1 241051Z 30005KT 07/06 A2999 RMK A01 T00740060  RH  091%=      5-min Rain = 0
KQU1 241052Z 29005KT 07/06 A2999 RMK A01 T00740060  RH  091%=      5-min Rain = 0
KQU1 241053Z 29005KT 07/06 A2999 RMK A01 T00740060  RH  091%=      5-min Rain = 0
KQU1 241054Z 29005KT 07/06 A2999 RMK A01 T00740060  RH  091%=      5-min Rain = 0
KQU1 241055Z 29005KT 07/06 A30 RMK A01 T00740060  RH  091%=      5-min Rain = 0
KQU1 241056Z 28005KT 07/06 A30 RMK A01 T00740060  RH  091%=      5-min Rain = 0
KQU1 241057Z 28005KT 07/06 A30 RMK A01 T00740060  RH  091%=      5-min Rain = 0
KQU1 241058Z 28005KT 07/06 A30 RMK A01 T00740060  RH  091%=      5-min Rain = 0
KQU1 241059Z 28004KT 07/06 A2999 RMK A01 T00740060  RH  091%=      5-min Rain = 0
KQU1 241100Z 29004KT 07/06 A2999 RMK A01 T00740061  RH  091%=      5-min Rain = 0
KQU1 241101Z 30004KT 07/06 A2999 RMK A01 T00740061  RH  091%=      5-min Rain = 0
KQU1 241102Z 31005KT 07/06 A2999 RMK A01 T00740061  RH  091%=      5-min Rain = 0
KQU1 241103Z 32005KT 07/06 A2998 RMK A01 T00740060  RH  091%=      5-min Rain = 0
KQU1 241104Z 32005KT 07/06 A2998 RMK A01 T00730060  RH  091%=      5-min Rain = 0
KQU1 241105Z 32006KT 07/06 A2998 RMK A01 T00730060  RH  091%=      5-min Rain = 0
KQU1 241106Z 32005KT 07/06 A2998 RMK A01 T00730060  RH  091%=      5-min Rain = 0
KQU1 241107Z 31005KT 07/06 A2998 RMK A01 T00730059  RH  091%=      5-min Rain = 0
KQU1 241108Z 31006KT 07/06 A2998 RMK A01 T00730059  RH  091%=      5-min Rain = 0
KQU1 241109Z 30006KT 07/06 A2998 RMK A01 T00730059  RH  091%=      5-min Rain = 0
KQU1 241110Z 29006KT 07/06 A2998 RMK A01 T00730059  RH  091%=      5-min Rain = 0
KQU1 241111Z 28006KT 07/06 A2998 RMK A01 T00730059  RH  091%=      5-min Rain = 0
KQU1 241112Z 27006KT 07/06 A2998 RMK A01 T00730060  RH  091%=      5-min Rain = 0
KQU1 241113Z 28006KT 07/06 A2998 RMK A01 T00730059  RH  091%=      5-min Rain = 0
KQU1 241114Z 27005KT 07/06 A2999 RMK A01 T00730059  RH  091%=      5-min Rain = 0
KQU1 241115Z 27006KT 07/06 A2999 RMK A01 T00730059  RH  091%=      5-min Rain = 0
KQU1 241116Z 27006KT 07/06 A2999 RMK A01 T00730059  RH  091%=      5-min Rain = 0
KQU1 241117Z 27005KT 07/06 A2999 RMK A01 T00730059  RH  091%=      5-min Rain = 0
KQU1 241118Z 28005KT 07/06 A2999 RMK A01 T00730059  RH  091%=      5-min Rain = 0
KQU1 241119Z 28004KT 07/06 A2998 RMK A01 T00730059  RH  091%=      5-min Rain = 0
KQU1 241120Z 28004KT 07/06 A2998 RMK A01 T00730059  RH  091%=      5-min Rain = 0
KQU1 241121Z 28004KT 07/06 A2998 RMK A01 T00730059  RH  091%=      5-min Rain = 0
KQU1 241122Z 28004KT 07/06 A2998 RMK A01 T00730059  RH  091%=      5-min Rain = 0
KQU1 241123Z 28004KT 07/06 A2998 RMK A01 T00730059  RH  091%=      5-min Rain = 0
KQU1 241124Z 27005KT 07/06 A2998 RMK A01 T00730059  RH  091%=      5-min Rain = 0
KQU1 241125Z 27005KT 07/06 A2998 RMK A01 T00740059  RH  090%=      5-min Rain = 0
KQU1 241126Z 27005KT 07/06 A2998 RMK A01 T00740059  RH  090%=      5-min Rain = 0
KQU1 241127Z 27004KT 07/06 A2998 RMK A01 T00740059  RH  090%=      5-min Rain = 0
KQU1 241128Z 27004KT 08/06 A2998 RMK A01 T00750059  RH  090%=      5-min Rain = 0
KQU1 241129Z 27005KT 08/06 A2998 RMK A01 T00750059  RH  090%=      5-min Rain = 0
KQU1 241130Z 27004KT 08/06 A2998 RMK A01 T00750059  RH  090%=      5-min Rain = 0
KQU1 241131Z 27004KT 08/06 A2999 RMK A01 T00750059  RH  090%=      5-min Rain = 0
KQU1 241132Z 27004KT 08/06 A2999 RMK A01 T00750059  RH  089%=      5-min Rain = 0
KQU1 241133Z 28004KT 08/06 A2999 RMK A01 T00750059  RH  089%=      5-min Rain = 0
KQU1 241134Z 28004KT 08/06 A2998 RMK A01 T00750059  RH  089%=      5-min Rain = 0
KQU1 241135Z 29004KT 08/06 A2998 RMK A01 T00750059  RH  090%=      5-min Rain = 0
KQU1 241136Z 30004KT 07/06 A2998 RMK A01 T00740059  RH  090%=      5-min Rain = 0
KQU1 241137Z 32005KT 07/06 A2998 RMK A01 T00740058  RH  090%=      5-min Rain = 0
KQU1 241138Z 33003KT 07/06 A2997 RMK A01 T00740058  RH  090%=      5-min Rain = 0
KQU1 241139Z 33004KT 07/06 A2997 RMK A01 T00740059  RH  090%=      5-min Rain = 0
KQU1 241140Z 31004KT 07/06 A2997 RMK A01 T00740059  RH  090%=      5-min Rain = 0
KQU1 241141Z 31004KT 07/06 A2998 RMK A01 T00730058  RH  090%=      5-min Rain = 0
KQU1 241142Z 31005KT 07/06 A2998 RMK A01 T00730058  RH  090%=      5-min Rain = 0
KQU1 241143Z 30006KT 07/06 A2997 RMK A01 T00730058  RH  090%=      5-min Rain = 0
KQU1 241144Z 30006KT 07/06 A2997 RMK A01 T00720058  RH  090%=      5-min Rain = 0
KQU1 241145Z 30007KT 07/06 A2997 RMK A01 T00720058  RH  090%=      5-min Rain = 0
KQU1 241146Z 30007KT 07/06 A2997 RMK A01 T00720058  RH  090%=      5-min Rain = 0
KQU1 241147Z 30006KT 07/06 A2997 RMK A01 T00720058  RH  090%=      5-min Rain = 0
KQU1 241148Z 31005KT 07/06 A2997 RMK A01 T00720057  RH  090%=      5-min Rain = 0
KQU1 241149Z 30005KT 07/06 A2998 RMK A01 T00720057  RH  090%=      5-min Rain = 0
KQU1 241150Z 30005KT 07/06 A2998 RMK A01 T00720057  RH  090%=      5-min Rain = 0
KQU1 241151Z 30004KT 07/06 A2998 RMK A01 T00720057  RH  090%=      5-min Rain = 0
KQU1 241152Z 30004KT 07/06 A2998 RMK A01 T00730058  RH  090%=      5-min Rain = 0
KQU1 241153Z 30004KT 07/06 A2998 RMK A01 T00730058  RH  090%=      5-min Rain = 0
KQU1 241154Z 30003KT 07/06 A2998 RMK A01 T00730058  RH  090%=      5-min Rain = 0
KQU1 241155Z 28003KT 07/06 A2998 RMK A01 T00730058  RH  090%=      5-min Rain = 0
KQU1 241156Z 29003KT 07/06 A2998 RMK A01 T00730059  RH  091%=      5-min Rain = 0
KQU1 241157Z 28003KT 07/06 A2998 RMK A01 T00730058  RH  091%=      5-min Rain = 0
KQU1 241158Z 28003KT 07/06 A2998 RMK A01 T00730058  RH  091%=      5-min Rain = 0
KQU1 241159Z 27004KT 07/06 A2999 RMK A01 T00720058  RH  091%=      5-min Rain = 0
KQU1 241200Z 27004KT 07/06 A2999 RMK A01 T00730058  RH  091%=      5-min Rain = 0
KQU1 241201Z 26005KT 07/06 A2999 RMK A01 T00730058  RH  090%=      5-min Rain = 0
KQU1 241202Z 26004KT 07/06 A2999 RMK A01 T00730058  RH  090%=      5-min Rain = 0
KQU1 241203Z 26004KT 07/06 A2999 RMK A01 T00730058  RH  090%=      5-min Rain = 0
KQU1 241204Z 26004KT 07/06 A30 RMK A01 T00740058  RH  090%=      5-min Rain = 0
KQU1 241205Z 27005KT 07/06 A30 RMK A01 T00740058  RH  090%=      5-min Rain = 0
KQU1 241206Z 26005KT 08/06 A30 RMK A01 T00750058  RH  089%=      5-min Rain = 0
KQU1 241207Z 27004KT 08/06 A2999 RMK A01 T00750058  RH  089%=      5-min Rain = 0
KQU1 241208Z 27004KT 08/06 A2999 RMK A01 T00750058  RH  089%=      5-min Rain = 0
KQU1 241209Z 27004KT 08/06 A2999 RMK A01 T00750058  RH  089%=      5-min Rain = 0
KQU1 241210Z 27004KT 08/06 A2999 RMK A01 T00750058  RH  089%=      5-min Rain = 0
KQU1 241211Z 27004KT 08/06 A2999 RMK A01 T00760058  RH  089%=      5-min Rain = 0
KQU1 241212Z 27004KT 08/06 A2999 RMK A01 T00760058  RH  089%=      5-min Rain = 0
KQU1 241213Z 27004KT 08/06 A30 RMK A01 T00760058  RH  089%=      5-min Rain = 0
KQU1 241214Z 27004KT 08/06 A30 RMK A01 T00760058  RH  088%=      5-min Rain = 0
KQU1 241215Z 27004KT 08/06 A30 RMK A01 T00760058  RH  088%=      5-min Rain = 0
KQU1 241216Z 28004KT 08/06 A30 RMK A01 T00760058  RH  088%=      5-min Rain = 0
KQU1 241217Z 28004KT 08/06 A30 RMK A01 T00760058  RH  088%=      5-min Rain = 0
KQU1 241218Z 28004KT 08/06 A30 RMK A01 T00760058  RH  088%=      5-min Rain = 0
KQU1 241219Z 28004KT 08/06 A30 RMK A01 T00760058  RH  088%=      5-min Rain = 0
KQU1 241220Z 28004KT 08/06 A30 RMK A01 T00760058  RH  088%=      5-min Rain = 0
KQU1 241221Z 28005KT 08/06 A30 RMK A01 T00760058  RH  088%=      5-min Rain = 0
KQU1 241222Z 28004KT 08/06 A30 RMK A01 T00760058  RH  089%=      5-min Rain = 0
KQU1 241223Z 27004KT 08/06 A30 RMK A01 T00750058  RH  089%=      5-min Rain = 0
KQU1 241224Z 27003KT 08/06 A30 RMK A01 T00750058  RH  089%=      5-min Rain = 0
KQU1 241225Z 27004KT 08/06 A30 RMK A01 T00750058  RH  089%=      5-min Rain = 0
KQU1 241226Z 26004KT 08/06 A30 RMK A01 T00750058  RH  089%=      5-min Rain = 0
KQU1 241227Z 26004KT 07/06 A30 RMK A01 T00740058  RH  089%=      5-min Rain = 0
KQU1 241228Z 26005KT 07/06 A30 RMK A01 T00740058  RH  089%=      5-min Rain = 0
KQU1 241229Z 26005KT 07/06 A30 RMK A01 T00740058  RH  090%=      5-min Rain = 0
KQU1 241230Z 25005KT 07/06 A30 RMK A01 T00730058  RH  090%=      5-min Rain = 0
KQU1 241231Z 24005KT 07/06 A30 RMK A01 T00730057  RH  090%=      5-min Rain = 0
KQU1 241232Z 25005KT 07/06 A30 RMK A01 T00720057  RH  090%=      5-min Rain = 0
KQU1 241233Z 26006KT 07/06 A30 RMK A01 T00710057  RH  090%=      5-min Rain = 0
KQU1 241234Z 26006KT 07/06 A30 RMK A01 T00710057  RH  091%=      5-min Rain = 0
KQU1 241235Z 26006KT 07/06 A30 RMK A01 T00710057  RH  091%=      5-min Rain = 0
KQU1 241236Z 27006KT 07/06 A30 RMK A01 T00710057  RH  091%=      5-min Rain = 0
KQU1 241237Z 27005KT 07/06 A30 RMK A01 T00710057  RH  091%=      5-min Rain = 0
KQU1 241238Z 27005KT 07/06 A30 RMK A01 T00710057  RH  091%=      5-min Rain = 0
KQU1 241239Z 28005KT 07/06 A30 RMK A01 T00710058  RH  091%=      5-min Rain = 0
KQU1 241240Z 28005KT 07/06 A30 RMK A01 T00720058  RH  091%=      5-min Rain = 0
KQU1 241241Z 29005KT 07/06 A3001 RMK A01 T00720058  RH  091%=      5-min Rain = 0
KQU1 241242Z 29006KT 07/06 A3001 RMK A01 T00720059  RH  091%=      5-min Rain = 0
KQU1 241243Z 29007KT 07/06 A3001 RMK A01 T00730059  RH  091%=      5-min Rain = 0
KQU1 241244Z 29007KT 07/06 A3001 RMK A01 T00730060  RH  091%=      5-min Rain = 0
KQU1 241245Z 30007KT 07/06 A3001 RMK A01 T00730060  RH  091%=      5-min Rain = 0
KQU1 241246Z 30007KT 07/06 A3001 RMK A01 T00730060  RH  091%=      5-min Rain = 0
KQU1 241247Z 30007KT 07/06 A3001 RMK A01 T00740059  RH  091%=      5-min Rain = 0
KQU1 241248Z 30007KT 07/06 A30 RMK A01 T00740059  RH  091%=      5-min Rain = 0
KQU1 241249Z 30007KT 07/06 A30 RMK A01 T00740059  RH  091%=      5-min Rain = 0
KQU1 241250Z 30007KT 07/06 A30 RMK A01 T00740059  RH  090%=      5-min Rain = 0
KQU1 241251Z 30007KT 07/06 A30 RMK A01 T00740059  RH  090%=      5-min Rain = 0
KQU1 241252Z 30007KT 07/06 A3001 RMK A01 T00740059  RH  090%=      5-min Rain = 0
KQU1 241253Z 30007KT 07/06 A3001 RMK A01 T00740059  RH  090%=      5-min Rain = 0
KQU1 241254Z 29007KT 07/06 A3001 RMK A01 T00740059  RH  090%=      5-min Rain = 0
KQU1 241255Z 29007KT 08/06 A3001 RMK A01 T00750059  RH  090%=      5-min Rain = 0
KQU1 241256Z 29007KT 08/06 A3001 RMK A01 T00750060  RH  090%=      5-min Rain = 0
KQU1 241257Z 29006KT 08/06 A3001 RMK A01 T00750060  RH  090%=      5-min Rain = 0
KQU1 241258Z 29005KT 08/06 A3001 RMK A01 T00750060  RH  090%=      5-min Rain = 0
KQU1 241259Z 29006KT 08/06 A30 RMK A01 T00760060  RH  090%=      5-min Rain = 0
KQU1 241300Z 29005KT 08/06 A30 RMK A01 T00760061  RH  090%=      5-min Rain = 0
KQU1 241301Z 29006KT 08/06 A30 RMK A01 T00760061  RH  090%=      5-min Rain = 0
KQU1 241302Z 29007KT 08/06 A30 RMK A01 T00760061  RH  090%=      5-min Rain = 0
KQU1 241303Z 30007KT 08/06 A30 RMK A01 T00770061  RH  090%=      5-min Rain = 0
KQU1 241304Z 30007KT 08/06 A30 RMK A01 T00770062  RH  090%=      5-min Rain = 0
KQU1 241305Z 30007KT 08/06 A30 RMK A01 T00770062  RH  090%=      5-min Rain = 0
KQU1 241306Z 30006KT 08/06 A30 RMK A01 T00780062  RH  090%=      5-min Rain = 0
KQU1 241307Z 30006KT 08/06 A30 RMK A01 T00780063  RH  090%=      5-min Rain = 0
KQU1 241308Z 30006KT 08/06 A30 RMK A01 T00780062  RH  090%=      5-min Rain = 0
KQU1 241309Z 30006KT 08/06 A30 RMK A01 T00780062  RH  090%=      5-min Rain = 0
KQU1 241310Z 30006KT 08/06 A30 RMK A01 T00790062  RH  089%=      5-min Rain = 0
KQU1 241311Z 30006KT 08/06 A30 RMK A01 T00790061  RH  089%=      5-min Rain = 0
KQU1 241312Z 30005KT 08/06 A30 RMK A01 T00800062  RH  088%=      5-min Rain = 0
KQU1 241313Z 30005KT 08/06 A30 RMK A01 T00800062  RH  088%=      5-min Rain = 0
KQU1 241314Z 30005KT 08/06 A30 RMK A01 T00800061  RH  088%=      5-min Rain = 0
KQU1 241315Z 30005KT 08/06 A30 RMK A01 T00800062  RH  088%=      5-min Rain = 0
KQU1 241316Z 30005KT 08/06 A30 RMK A01 T00810062  RH  088%=      5-min Rain = 0
KQU1 241317Z 30006KT 08/06 A30 RMK A01 T00820063  RH  088%=      5-min Rain = 0
KQU1 241318Z 30006KT 08/07 A30 RMK A01 T00830065  RH  088%=      5-min Rain = 0
KQU1 241319Z 29005KT 08/07 A30 RMK A01 T00840067  RH  089%=      5-min Rain = 0
KQU1 241320Z 29005KT 09/07 A30 RMK A01 T00860068  RH  088%=      5-min Rain = 0
KQU1 241321Z 29004KT 09/07 A30 RMK A01 T00870068  RH  087%=      5-min Rain = 0
KQU1 241322Z 28003KT 09/07 A30 RMK A01 T00890070  RH  088%=      5-min Rain = 0
KQU1 241323Z 29005KT 09/07 A30 RMK A01 T00910070  RH  087%=      5-min Rain = 0
KQU1 241324Z 28004KT 09/07 A30 RMK A01 T00920071  RH  086%=      5-min Rain = 0
KQU1 241325Z 29004KT 09/07 A30 RMK A01 T00940072  RH  086%=      5-min Rain = 0
KQU1 241326Z 29004KT 10/07 A30 RMK A01 T00950072  RH  086%=      5-min Rain = 0
KQU1 241327Z 29004KT 10/07 A30 RMK A01 T00960069  RH  083%=      5-min Rain = 0
KQU1 241328Z 29004KT 10/07 A30 RMK A01 T00970069  RH  083%=      5-min Rain = 0
KQU1 241329Z 28004KT 10/07 A30 RMK A01 T00980070  RH  083%=      5-min Rain = 0
KQU1 241330Z 28003KT 10/07 A30 RMK A01 T00990073  RH  084%=      5-min Rain = 0
KQU1 241331Z 28004KT 10/07 A30 RMK A01 T01010072  RH  083%=      5-min Rain = 0
KQU1 241332Z 28004KT 10/07 A30 RMK A01 T01020073  RH  082%=      5-min Rain = 0
KQU1 241333Z 28005KT 10/07 A30 RMK A01 T01030072  RH  081%=      5-min Rain = 0
KQU1 241334Z 28005KT 10/07 A30 RMK A01 T01030072  RH  081%=      5-min Rain = 0
KQU1 241335Z 29005KT 10/07 A30 RMK A01 T01040071  RH  080%=      5-min Rain = 0
KQU1 241336Z 29004KT 10/07 A30 RMK A01 T01040070  RH  080%=      5-min Rain = 0
KQU1 241337Z 30004KT 10/07 A30 RMK A01 T01040071  RH  080%=      5-min Rain = 0
KQU1 241338Z 30003KT 11/07 A30 RMK A01 T01050072  RH  080%=      5-min Rain = 0
KQU1 241339Z 30003KT 11/07 A30 RMK A01 T01060073  RH  080%=      5-min Rain = 0
KQU1 241340Z 29003KT 11/08 A30 RMK A01 T01070075  RH  080%=      5-min Rain = 0
KQU1 241341Z 30003KT 11/07 A30 RMK A01 T01080074  RH  079%=      5-min Rain = 0
KQU1 241342Z 31002KT 11/08 A30 RMK A01 T01090075  RH  080%=      5-min Rain = 0
KQU1 241343Z 33003KT 11/07 A30 RMK A01 T01100074  RH  078%=      5-min Rain = 0
KQU1 241344Z 32003KT 11/07 A30 RMK A01 T01110074  RH  078%=      5-min Rain = 0
KQU1 241345Z 32003KT 11/08 A30 RMK A01 T01120077  RH  079%=      5-min Rain = 0
KQU1 241346Z 32003KT 11/07 A30 RMK A01 T01130073  RH  076%=      5-min Rain = 0
KQU1 241347Z 32003KT 11/07 A30 RMK A01 T01140072  RH  075%=      5-min Rain = 0
KQU1 241348Z 32002KT 12/08 A30 RMK A01 T01150075  RH  076%=      5-min Rain = 0
KQU1 241349Z 32003KT 12/08 A30 RMK A01 T01160075  RH  076%=      5-min Rain = 0
KQU1 241350Z 31002KT 12/07 A30 RMK A01 T01170073  RH  074%=      5-min Rain = 0
KQU1 241351Z 32002KT 12/07 A30 RMK A01 T01170070  RH  073%=      5-min Rain = 0
KQU1 241352Z 32002KT 12/07 A30 RMK A01 T01170071  RH  073%=      5-min Rain = 0
KQU1 241353Z 32002KT 12/07 A30 RMK A01 T01180072  RH  074%=      5-min Rain = 0
KQU1 241354Z 33001KT 12/07 A30 RMK A01 T01190072  RH  073%=      5-min Rain = 0
KQU1 241355Z 32002KT 12/07 A30 RMK A01 T01200073  RH  073%=      5-min Rain = 0
KQU1 241356Z 31002KT 12/07 A30 RMK A01 T01200071  RH  072%=      5-min Rain = 0
KQU1 241357Z 33003KT 12/07 A30 RMK A01 T01210069  RH  070%=      5-min Rain = 0
KQU1 241358Z 33003KT 12/07 A30 RMK A01 T01210067  RH  070%=      5-min Rain = 0
KQU1 241359Z 33003KT 12/07 A30 RMK A01 T01220070  RH  071%=      5-min Rain = 0
KQU1 241400Z 32004KT 12/07 A30 RMK A01 T01220066  RH  069%=      5-min Rain = 0
KQU1 241401Z 32003KT 12/07 A30 RMK A01 T01220067  RH  069%=      5-min Rain = 0
KQU1 241402Z 32004KT 12/07 A30 RMK A01 T01230069  RH  070%=      5-min Rain = 0
KQU1 241403Z 31003KT 12/06 A30 RMK A01 T01230064  RH  067%=      5-min Rain = 0
KQU1 241404Z 32003KT 12/07 A2999 RMK A01 T01240068  RH  069%=      5-min Rain = 0
KQU1 241405Z 32004KT 13/07 A2999 RMK A01 T01250067  RH  068%=      5-min Rain = 0
KQU1 241406Z 32004KT 12/07 A2999 RMK A01 T01240068  RH  068%=      5-min Rain = 0
KQU1 241407Z 32004KT 12/06 A2999 RMK A01 T01240064  RH  067%=      5-min Rain = 0
KQU1 241408Z 31004KT 13/07 A2999 RMK A01 T01250069  RH  069%=      5-min Rain = 0
KQU1 241409Z 31003KT 13/07 A2999 RMK A01 T01250067  RH  068%=      5-min Rain = 0
KQU1 241410Z 31003KT 12/07 A2999 RMK A01 T01240067  RH  068%=      5-min Rain = 0
KQU1 241411Z 33003KT 13/07 A2999 RMK A01 T01250066  RH  067%=      5-min Rain = 0
KQU1 241412Z 32003KT 13/07 A2999 RMK A01 T01270067  RH  067%=      5-min Rain = 0
KQU1 241413Z 32003KT 13/06 A2999 RMK A01 T01260063  RH  065%=      5-min Rain = 0
KQU1 241414Z 35003KT 13/07 A2999 RMK A01 T01270067  RH  067%=      5-min Rain = 0
KQU1 241415Z 35005KT 13/07 A2999 RMK A01 T01270065  RH  066%=      5-min Rain = 0
KQU1 241416Z 35004KT 13/07 A2999 RMK A01 T01270067  RH  067%=      5-min Rain = 0
KQU1 241417Z 34003KT 13/07 A2999 RMK A01 T01270067  RH  067%=      5-min Rain = 0
KQU1 241418Z 34002KT 13/07 A2999 RMK A01 T01280070  RH  068%=      5-min Rain = 0
KQU1 241419Z 01003KT 13/07 A2999 RMK A01 T01290071  RH  068%=      5-min Rain = 0
KQU1 241420Z 01003KT 13/07 A2999 RMK A01 T01300073  RH  068%=      5-min Rain = 0
KQU1 241449Z 06005KT 14/06 A2999 RMK A01 T01370064  RH  062%=      5-min Rain = 0
KQU1 241450Z 05004KT 14/06 A2999 RMK A01 T01360061  RH  060%=      5-min Rain = 0
KQU1 241451Z 06005KT 14/06 A2999 RMK A01 T01360062  RH  061%=      5-min Rain = 0
KQU1 241452Z 05005KT 14/06 A2999 RMK A01 T01360062  RH  061%=      5-min Rain = 0
KQU1 241453Z 05004KT 14/06 A2999 RMK A01 T01360059  RH  060%=      5-min Rain = 0
KQU1 241454Z 06003KT 14/06 A2999 RMK A01 T01360060  RH  060%=      5-min Rain = 0
KQU1 241455Z 07004KT 14/05 A2999 RMK A01 T01360054  RH  058%=      5-min Rain = 0
KQU1 241456Z 06004KT 14/06 A2999 RMK A01 T01360057  RH  059%=      5-min Rain = 0
KQU1 241457Z 03004KT 14/06 A2999 RMK A01 T01370059  RH  060%=      5-min Rain = 0
KQU1 241458Z 03004KT 14/06 A2999 RMK A01 T01370061  RH  060%=      5-min Rain = 0
KQU1 241459Z 02004KT 14/06 A2999 RMK A01 T01380060  RH  059%=      5-min Rain = 0
KQU1 241500Z 03004KT 14/06 A2998 RMK A01 T01380059  RH  059%=      5-min Rain = 0
KQU1 241501Z 03005KT 14/06 A2998 RMK A01 T01390059  RH  059%=      5-min Rain = 0
KQU1 241502Z 02004KT 14/06 A2998 RMK A01 T01390060  RH  059%=      5-min Rain = 0
KQU1 241503Z 03005KT 14/06 A2998 RMK A01 T01400064  RH  060%=      5-min Rain = 0
KQU1 241504Z 03004KT 14/06 A2998 RMK A01 T01410060  RH  058%=      5-min Rain = 0
KQU1 241505Z 03003KT 14/06 A2998 RMK A01 T01400062  RH  059%=      5-min Rain = 0
KQU1 241506Z 03004KT 14/07 A2998 RMK A01 T01410065  RH  061%=      5-min Rain = 0
KQU1 241507Z 01006KT 14/06 A2998 RMK A01 T01410064  RH  060%=      5-min Rain = 0
KQU1 241508Z 00005KT 14/06 A2998 RMK A01 T01400064  RH  060%=      5-min Rain = 0
KQU1 241509Z 02003KT 14/07 A2998 RMK A01 T01400065  RH  061%=      5-min Rain = 0
KQU1 241510Z 03003KT 14/06 A2998 RMK A01 T01400064  RH  060%=      5-min Rain = 0
KQU1 241511Z 02003KT 14/07 A2998 RMK A01 T01410068  RH  061%=      5-min Rain = 0
KQU1 241512Z 03004KT 14/07 A2998 RMK A01 T01420072  RH  063%=      5-min Rain = 0
KQU1 241513Z 05003KT 14/08 A2998 RMK A01 T01430075  RH  064%=      5-min Rain = 0
KQU1 241514Z 03004KT 15/08 A2998 RMK A01 T01450075  RH  063%=      5-min Rain = 0
KQU1 241515Z 03005KT 15/07 A2998 RMK A01 T01460072  RH  061%=      5-min Rain = 0
KQU1 241516Z 02005KT 15/07 A2998 RMK A01 T01460065  RH  058%=      5-min Rain = 0
KQU1 241517Z 03004KT 15/06 A2998 RMK A01 T01450064  RH  058%=      5-min Rain = 0
KQU1 241518Z 03002KT 15/07 A2998 RMK A01 T01450065  RH  059%=      5-min Rain = 0
KQU1 241519Z 03004KT 15/07 A2998 RMK A01 T01460068  RH  060%=      5-min Rain = 0
KQU1 241531Z 34004KT 15/07 A2998 RMK A01 T01510065  RH  056%=      5-min Rain = 0
KQU1 241532Z 35005KT 15/07 A2998 RMK A01 T01510071  RH  059%=      5-min Rain = 0
KQU1 241533Z 36004KT 15/07 A2998 RMK A01 T01500066  RH  057%=      5-min Rain = 0
KQU1 241534Z 01004KT 15/07 A2998 RMK A01 T01490066  RH  057%=      5-min Rain = 0
KQU1 241535Z 01004KT 15/07 A2998 RMK A01 T01500067  RH  058%=      5-min Rain = 0
KQU1 241536Z 01003KT 15/07 A2998 RMK A01 T01510072  RH  060%=      5-min Rain = 0
KQU1 241537Z 00005KT 15/07 A2998 RMK A01 T01510069  RH  058%=      5-min Rain = 0
KQU1 241538Z 03003KT 15/07 A2998 RMK A01 T01510069  RH  058%=      5-min Rain = 0
KQU1 241539Z 04003KT 15/07 A2998 RMK A01 T01520072  RH  059%=      5-min Rain = 0
KQU1 241540Z 05002KT 15/07 A2998 RMK A01 T01530074  RH  059%=      5-min Rain = 0
KQU1 241541Z 01002KT 16/07 A2998 RMK A01 T01550071  RH  057%=      5-min Rain = 0
KQU1 241542Z 01003KT 16/07 A2998 RMK A01 T01550065  RH  055%=      5-min Rain = 0
KQU1 241543Z 04003KT 15/07 A2998 RMK A01 T01540065  RH  055%=      5-min Rain = 0
KQU1 241544Z 03004KT 15/06 A2998 RMK A01 T01540063  RH  055%=      5-min Rain = 0
KQU1 241545Z 03003KT 15/06 A2998 RMK A01 T01530064  RH  055%=      5-min Rain = 0
KQU1 241546Z 35004KT 15/07 A2998 RMK A01 T01540073  RH  058%=      5-min Rain = 0
KQU1 241547Z 35004KT 15/07 A2998 RMK A01 T01540065  RH  055%=      5-min Rain = 0
KQU1 241548Z 31005KT 15/06 A2998 RMK A01 T01520063  RH  055%=      5-min Rain = 0
KQU1 241549Z 29002KT 15/06 A2998 RMK A01 T01510064  RH  056%=      5-min Rain = 0
KQU1 241550Z 30003KT 15/07 A2998 RMK A01 T01520066  RH  057%=      5-min Rain = 0
KQU1 241551Z 30003KT 15/07 A2998 RMK A01 T01520067  RH  057%=      5-min Rain = 0
KQU1 241552Z 36004KT 15/07 A2998 RMK A01 T01530069  RH  057%=      5-min Rain = 0
KQU1 241553Z 03004KT 15/07 A2999 RMK A01 T01540069  RH  057%=      5-min Rain = 0
KQU1 241554Z 03004KT 15/06 A2999 RMK A01 T01540063  RH  055%=      5-min Rain = 0
KQU1 241555Z 36003KT 16/07 A2999 RMK A01 T01550073  RH  058%=      5-min Rain = 0
KQU1 241556Z 34003KT 15/07 A2999 RMK A01 T01540066  RH  056%=      5-min Rain = 0
KQU1 241557Z 35002KT 15/06 A2999 RMK A01 T01530064  RH  056%=      5-min Rain = 0
KQU1 241558Z 03001KT 15/07 A2999 RMK A01 T01530067  RH  056%=      5-min Rain = 0
KQU1 241559Z 03001KT 16/08 A2999 RMK A01 T01560079  RH  060%=      5-min Rain = 0
KQU1 241600Z 33003KT 16/07 A2999 RMK A01 T01580073  RH  057%=      5-min Rain = 0
KQU1 241601Z 31000KT 16/07 A2999 RMK A01 T01580070  RH  056%=      5-min Rain = 0
KQU1 241602Z 25000KT 16/07 A2999 RMK A01 T01580065  RH  054%=      5-min Rain = 0
KQU1 241603Z 30001KT 16/07 A2999 RMK A01 T01590065  RH  054%=      5-min Rain = 0
KQU1 241604Z 29003KT 16/07 A2999 RMK A01 T01590066  RH  054%=      5-min Rain = 0
KQU1 241605Z 25002KT 16/06 A2999 RMK A01 T01580064  RH  053%=      5-min Rain = 0
KQU1 241606Z 24002KT 16/07 A2999 RMK A01 T01580066  RH  054%=      5-min Rain = 0
KQU1 241607Z 25003KT 16/07 A2999 RMK A01 T01580067  RH  055%=      5-min Rain = 0
KQU1 241608Z 26004KT 16/07 A2999 RMK A01 T01580068  RH  055%=      5-min Rain = 0
KQU1 241609Z 30003KT 16/08 A2999 RMK A01 T01590076  RH  058%=      5-min Rain = 0
KQU1 241610Z 29006KT 16/08 A30 RMK A01 T01600076  RH  058%=      5-min Rain = 0
KQU1 241611Z 29005KT 16/07 A30 RMK A01 T01600072  RH  056%=      5-min Rain = 0
KQU1 241612Z 27006KT 16/07 A30 RMK A01 T01590072  RH  056%=      5-min Rain = 0
KQU1 241613Z 25004KT 16/07 A30 RMK A01 T01600073  RH  056%=      5-min Rain = 0
KQU1 241614Z 24004KT 16/08 A30 RMK A01 T01600075  RH  057%=      5-min Rain = 0
KQU1 241615Z 30004KT 16/08 A30 RMK A01 T01610075  RH  057%=      5-min Rain = 0
KQU1 241616Z 31003KT 16/07 A30 RMK A01 T01610072  RH  056%=      5-min Rain = 0
KQU1 241617Z 31002KT 16/07 A30 RMK A01 T01610071  RH  055%=      5-min Rain = 0
KQU1 241618Z 26003KT 16/07 A30 RMK A01 T01610072  RH  056%=      5-min Rain = 0
KQU1 241619Z 29004KT 16/07 A30 RMK A01 T01610072  RH  055%=      5-min Rain = 0
KQU1 241620Z 29004KT 16/07 A30 RMK A01 T01600069  RH  055%=      5-min Rain = 0
KQU1 241621Z 31001KT 16/07 A30 RMK A01 T01600069  RH  055%=      5-min Rain = 0
KQU1 241622Z 28003KT 16/07 A30 RMK A01 T01610072  RH  055%=      5-min Rain = 0
KQU1 241623Z 27002KT 16/07 A30 RMK A01 T01610073  RH  056%=      5-min Rain = 0
KQU1 241624Z 00001KT 16/07 A30 RMK A01 T01620072  RH  055%=      5-min Rain = 0
KQU1 241625Z 01002KT 16/08 A30 RMK A01 T01640078  RH  056%=      5-min Rain = 0
KQU1 241626Z 07002KT 17/07 A30 RMK A01 T01660072  RH  054%=      5-min Rain = 0
KQU1 241627Z 05003KT 17/08 A30 RMK A01 T01660076  RH  055%=      5-min Rain = 0
KQU1 241628Z 36001KT 17/08 A30 RMK A01 T01670081  RH  057%=      5-min Rain = 0
KQU1 241629Z 36005KT 17/08 A30 RMK A01 T01670077  RH  055%=      5-min Rain = 0
KQU1 241630Z 03004KT 17/08 A30 RMK A01 T01670077  RH  055%=      5-min Rain = 0
KQU1 241631Z 06004KT 17/07 A30 RMK A01 T01660072  RH  054%=      5-min Rain = 0
KQU1 241632Z 05005KT 17/07 A30 RMK A01 T01650072  RH  054%=      5-min Rain = 0
KQU1 241633Z 04006KT 17/07 A30 RMK A01 T01650073  RH  055%=      5-min Rain = 0
KQU1 241634Z 03005KT 16/08 A30 RMK A01 T01630076  RH  056%=      5-min Rain = 0
KQU1 241635Z 34005KT 16/08 A30 RMK A01 T01630077  RH  057%=      5-min Rain = 0
KQU1 241636Z 35006KT 16/08 A30 RMK A01 T01620075  RH  056%=      5-min Rain = 0
KQU1 241637Z 34005KT 16/08 A30 RMK A01 T01630082  RH  059%=      5-min Rain = 0
KQU1 241638Z 34003KT 17/08 A30 RMK A01 T01650081  RH  058%=      5-min Rain = 0
KQU1 241639Z 32003KT 16/08 A30 RMK A01 T01640075  RH  056%=      5-min Rain = 0
KQU1 241640Z 35001KT 16/08 A2999 RMK A01 T01630077  RH  057%=      5-min Rain = 0
KQU1 241641Z 03003KT 17/08 A2999 RMK A01 T01650079  RH  057%=      5-min Rain = 0
KQU1 241642Z 35005KT 17/08 A2999 RMK A01 T01670080  RH  057%=      5-min Rain = 0
KQU1 241643Z 34004KT 17/08 A2999 RMK A01 T01670076  RH  055%=      5-min Rain = 0
KQU1 241644Z 34005KT 17/07 A2999 RMK A01 T01650072  RH  054%=      5-min Rain = 0
KQU1 241645Z 01003KT 16/07 A2999 RMK A01 T01640074  RH  055%=      5-min Rain = 0
KQU1 241646Z 02003KT 17/08 A2999 RMK A01 T01650078  RH  056%=      5-min Rain = 0
KQU1 241647Z 03003KT 17/08 A2999 RMK A01 T01660081  RH  057%=      5-min Rain = 0
KQU1 241648Z 33005KT 17/08 A2999 RMK A01 T01670083  RH  058%=      5-min Rain = 0
KQU1 241649Z 34005KT 17/08 A2999 RMK A01 T01660081  RH  057%=      5-min Rain = 0
KQU1 241650Z 32006KT 17/08 A2999 RMK A01 T01670083  RH  058%=      5-min Rain = 0
KQU1 241651Z 31005KT 17/08 A2999 RMK A01 T01670084  RH  058%=      5-min Rain = 0
KQU1 241652Z 36004KT 17/08 A2999 RMK A01 T01670081  RH  057%=      5-min Rain = 0
KQU1 241653Z 04005KT 17/08 A2999 RMK A01 T01670075  RH  054%=      5-min Rain = 0
KQU1 241654Z 03005KT 17/07 A2999 RMK A01 T01660074  RH  054%=      5-min Rain = 0
KQU1 241655Z 04003KT 17/08 A2999 RMK A01 T01650076  RH  056%=      5-min Rain = 0
KQU1 241656Z 05005KT 17/08 A2999 RMK A01 T01650082  RH  058%=      5-min Rain = 0
KQU1 241657Z 04006KT 17/08 A2999 RMK A01 T01660078  RH  056%=      5-min Rain = 0
KQU1 241658Z 06005KT 17/08 A2999 RMK A01 T01650077  RH  056%=      5-min Rain = 0
KQU1 241659Z 05003KT 17/08 A2999 RMK A01 T01650078  RH  056%=      5-min Rain = 0
KQU1 241700Z 00001KT 17/07 A2999 RMK A01 T01650072  RH  054%=      5-min Rain = 0
KQU1 241701Z 10001KT 17/07 A2999 RMK A01 T01650073  RH  055%=      5-min Rain = 0
KQU1 241702Z 07004KT 17/08 A2999 RMK A01 T01660081  RH  057%=      5-min Rain = 0
KQU1 241703Z 03007KT 17/08 A2999 RMK A01 T01670081  RH  057%=      5-min Rain = 0
KQU1 241704Z 05005KT 17/07 A2999 RMK A01 T01670071  RH  053%=      5-min Rain = 0
KQU1 241705Z 05002KT 17/08 A2999 RMK A01 T01660079  RH  056%=      5-min Rain = 0
KQU1 241706Z 06004KT 17/08 A2999 RMK A01 T01680084  RH  058%=      5-min Rain = 0
KQU1 241707Z 03003KT 17/08 A2998 RMK A01 T01690082  RH  057%=      5-min Rain = 0
KQU1 241708Z 09004G10KT 17/08 A2998 RMK A01 T01700083  RH  057%=      5-min Rain = 0
KQU1 241709Z 35008KT 17/09 A2998 RMK A01 T01710085  RH  057%=      5-min Rain = 0
KQU1 241710Z 32005KT 17/08 A2998 RMK A01 T01690076  RH  054%=      5-min Rain = 0
KQU1 241711Z 33004KT 17/08 A2998 RMK A01 T01680077  RH  055%=      5-min Rain = 0
KQU1 241712Z 01003KT 17/08 A2998 RMK A01 T01680083  RH  057%=      5-min Rain = 0
KQU1 241713Z 01004KT 17/08 A2998 RMK A01 T01690078  RH  055%=      5-min Rain = 0
KQU1 241714Z 04006KT 17/08 A2998 RMK A01 T01700077  RH  054%=      5-min Rain = 0
KQU1 241715Z 04008KT 17/08 A2998 RMK A01 T01690077  RH  054%=      5-min Rain = 0
KQU1 241716Z 05006KT 17/08 A2998 RMK A01 T01690077  RH  055%=      5-min Rain = 0
KQU1 241717Z 04010KT 17/08 A2998 RMK A01 T01690078  RH  055%=      5-min Rain = 0
KQU1 241718Z 02007KT 17/08 A2998 RMK A01 T01690076  RH  054%=      5-min Rain = 0
KQU1 241719Z 01003KT 17/08 A2998 RMK A01 T01690081  RH  056%=      5-min Rain = 0
KQU1 241720Z 00003KT 17/08 A2998 RMK A01 T01700079  RH  055%=      5-min Rain = 0
KQU1 241721Z 03005KT 17/08 A2998 RMK A01 T01700082  RH  056%=      5-min Rain = 0
KQU1 241722Z 03007KT 17/08 A2998 RMK A01 T01710078  RH  054%=      5-min Rain = 0
KQU1 241723Z 04005KT 17/08 A2998 RMK A01 T01710076  RH  053%=      5-min Rain = 0
KQU1 241724Z 03005KT 17/08 A2998 RMK A01 T01710080  RH  055%=      5-min Rain = 0
KQU1 241725Z 05004KT 17/08 A2998 RMK A01 T01720076  RH  053%=      5-min Rain = 0
KQU1 241726Z 06002KT 17/07 A2998 RMK A01 T01720073  RH  052%=      5-min Rain = 0
KQU1 241727Z 13002KT 17/08 A2998 RMK A01 T01710076  RH  053%=      5-min Rain = 0
KQU1 241728Z 10003KT 17/08 A2998 RMK A01 T01720078  RH  054%=      5-min Rain = 0
KQU1 241729Z 09002KT 17/08 A2998 RMK A01 T01740081  RH  054%=      5-min Rain = 0
KQU1 241730Z 02001KT 18/09 A2998 RMK A01 T01750087  RH  056%=      5-min Rain = 0
KQU1 241731Z 31002KT 18/08 A2997 RMK A01 T01760083  RH  055%=      5-min Rain = 0
KQU1 241732Z 35004KT 18/09 A2997 RMK A01 T01770085  RH  055%=      5-min Rain = 0
KQU1 241733Z 35007KT 18/08 A2997 RMK A01 T01770079  RH  052%=      5-min Rain = 0
KQU1 241734Z 33005KT 18/08 A2997 RMK A01 T01760080  RH  054%=      5-min Rain = 0
KQU1 241735Z 00006KT 18/08 A2997 RMK A01 T01750081  RH  054%=      5-min Rain = 0
KQU1 241736Z 01004KT 17/08 A2997 RMK A01 T01740080  RH  054%=      5-min Rain = 0
KQU1 241737Z 00004KT 17/08 A2997 RMK A01 T01740077  RH  053%=      5-min Rain = 0
KQU1 241738Z 05002KT 17/08 A2997 RMK A01 T01740077  RH  053%=      5-min Rain = 0
KQU1 241739Z 33003KT 17/08 A2997 RMK A01 T01740076  RH  053%=      5-min Rain = 0
KQU1 241740Z 30001KT 17/08 A2997 RMK A01 T01740077  RH  053%=      5-min Rain = 0
KQU1 241741Z 02001KT 18/09 A2997 RMK A01 T01760089  RH  056%=      5-min Rain = 0
KQU1 241742Z 03003KT 18/09 A2997 RMK A01 T01790089  RH  056%=      5-min Rain = 0
KQU1 241743Z 02004KT 18/08 A2997 RMK A01 T01800082  RH  053%=      5-min Rain = 0
KQU1 241744Z 04005KT 18/08 A2997 RMK A01 T01780076  RH  051%=      5-min Rain = 0
KQU1 241745Z 04004KT 18/08 A2997 RMK A01 T01770079  RH  053%=      5-min Rain = 0
KQU1 241746Z 00006KT 18/08 A2997 RMK A01 T01760081  RH  053%=      5-min Rain = 0
KQU1 241747Z 36005KT 18/08 A2997 RMK A01 T01760078  RH  053%=      5-min Rain = 0
KQU1 241748Z 35005KT 18/08 A2997 RMK A01 T01760084  RH  055%=      5-min Rain = 0
KQU1 241749Z 35005KT 18/08 A2997 RMK A01 T01760080  RH  053%=      5-min Rain = 0
KQU1 241750Z 34004KT 18/09 A2997 RMK A01 T01760085  RH  055%=      5-min Rain = 0
KQU1 241751Z 31006KT 18/08 A2996 RMK A01 T01760081  RH  053%=      5-min Rain = 0
KQU1 241752Z 31004KT 18/08 A2996 RMK A01 T01760079  RH  053%=      5-min Rain = 0
KQU1 241753Z 35003KT 18/08 A2996 RMK A01 T01750076  RH  052%=      5-min Rain = 0
KQU1 241754Z 04005KT 18/08 A2996 RMK A01 T01760078  RH  053%=      5-min Rain = 0
KQU1 241755Z 03005KT 18/08 A2996 RMK A01 T01770078  RH  052%=      5-min Rain = 0
KQU1 241756Z 01005KT 18/08 A2996 RMK A01 T01770076  RH  051%=      5-min Rain = 0
KQU1 241757Z 02004KT 18/08 A2996 RMK A01 T01760079  RH  053%=      5-min Rain = 0
KQU1 241758Z 32004KT 18/09 A2996 RMK A01 T01770089  RH  056%=      5-min Rain = 0
KQU1 241759Z 33003KT 18/09 A2996 RMK A01 T01790087  RH  055%=      5-min Rain = 0
KQU1 241800Z 32002KT 18/08 A2996 RMK A01 T01790078  RH  051%=      5-min Rain = 0
KQU1 241801Z 35005KT 18/08 A2996 RMK A01 T01790080  RH  052%=      5-min Rain = 0
KQU1 241802Z 36007KT 18/08 A2996 RMK A01 T01790075  RH  051%=      5-min Rain = 0
KQU1 241803Z 01005KT 18/08 A2996 RMK A01 T01780076  RH  051%=      5-min Rain = 0
KQU1 241804Z 01004KT 18/08 A2996 RMK A01 T01780080  RH  053%=      5-min Rain = 0
KQU1 241805Z 02005KT 18/08 A2995 RMK A01 T01780078  RH  052%=      5-min Rain = 0
KQU1 241806Z 02005KT 18/08 A2995 RMK A01 T01780081  RH  053%=      5-min Rain = 0
KQU1 241807Z 04005KT 18/08 A2995 RMK A01 T01780077  RH  051%=      5-min Rain = 0
KQU1 241808Z 36005KT 18/08 A2995 RMK A01 T01780081  RH  053%=      5-min Rain = 0
KQU1 241809Z 32003KT 18/07 A2995 RMK A01 T01770072  RH  050%=      5-min Rain = 0
KQU1 241810Z 33002KT 18/08 A2995 RMK A01 T01770083  RH  054%=      5-min Rain = 0
KQU1 241811Z 03007KT 18/08 A2995 RMK A01 T01790080  RH  052%=      5-min Rain = 0
KQU1 241812Z 05009KT 18/08 A2995 RMK A01 T01790082  RH  053%=      5-min Rain = 0
KQU1 241813Z 03009KT 18/08 A2995 RMK A01 T01790080  RH  052%=      5-min Rain = 0
KQU1 241814Z 02009KT 18/08 A2995 RMK A01 T01780078  RH  052%=      5-min Rain = 0
KQU1 241815Z 04006KT 18/07 A2995 RMK A01 T01770074  RH  051%=      5-min Rain = 0
KQU1 241816Z 04008KT 18/08 A2995 RMK A01 T01770081  RH  053%=      5-min Rain = 0
KQU1 241817Z 03005KT 18/08 A2995 RMK A01 T01770077  RH  052%=      5-min Rain = 0
KQU1 241818Z 02004KT 18/08 A2995 RMK A01 T01770078  RH  052%=      5-min Rain = 0
KQU1 241819Z 35003KT 18/08 A2995 RMK A01 T01770081  RH  053%=      5-min Rain = 0
KQU1 241820Z 05000KT 18/09 A2995 RMK A01 T01790089  RH  056%=      5-min Rain = 0
KQU1 241821Z 01002KT 18/08 A2995 RMK A01 T01800083  RH  053%=      5-min Rain = 0
KQU1 241822Z 03004KT 18/08 A2995 RMK A01 T01800082  RH  052%=      5-min Rain = 0
KQU1 241823Z 01005KT 18/08 A2995 RMK A01 T01810078  RH  051%=      5-min Rain = 0
KQU1 241824Z 01003KT 18/07 A2995 RMK A01 T01790073  RH  050%=      5-min Rain = 0
KQU1 241825Z 03006KT 18/08 A2994 RMK A01 T01790078  RH  051%=      5-min Rain = 0
KQU1 241826Z 02007KT 18/08 A2994 RMK A01 T01790079  RH  052%=      5-min Rain = 0
KQU1 241827Z 35005KT 18/08 A2994 RMK A01 T01790077  RH  051%=      5-min Rain = 0
KQU1 241828Z 03005KT 18/08 A2994 RMK A01 T01790079  RH  052%=      5-min Rain = 0
KQU1 241829Z 03006KT 18/08 A2994 RMK A01 T01800080  RH  052%=      5-min Rain = 0
KQU1 241830Z 03005KT 18/08 A2994 RMK A01 T01800080  RH  052%=      5-min Rain = 0
KQU1 241831Z 02004KT 18/08 A2994 RMK A01 T01800078  RH  051%=      5-min Rain = 0
KQU1 241832Z 04004KT 18/08 A2994 RMK A01 T01810078  RH  051%=      5-min Rain = 0
KQU1 241833Z 03006KT 18/08 A2994 RMK A01 T01820081  RH  052%=      5-min Rain = 0
KQU1 241834Z 02005KT 18/09 A2994 RMK A01 T01820085  RH  053%=      5-min Rain = 0
KQU1 241835Z 01005G10KT 18/09 A2994 RMK A01 T01840094  RH  056%=      5-min Rain = 0
KQU1 241836Z 02007KT 19/08 A2994 RMK A01 T01850082  RH  051%=      5-min Rain = 0
KQU1 241837Z 01007KT 18/08 A2994 RMK A01 T01840084  RH  052%=      5-min Rain = 0
KQU1 241838Z 02003KT 18/09 A2994 RMK A01 T01830085  RH  053%=      5-min Rain = 0
KQU1 241839Z 04006KT 18/08 A2994 RMK A01 T01840083  RH  052%=      5-min Rain = 0
KQU1 241840Z 04007KT 18/08 A2994 RMK A01 T01840084  RH  052%=      5-min Rain = 0
KQU1 241841Z 03004KT 18/08 A2994 RMK A01 T01840080  RH  051%=      5-min Rain = 0
KQU1 241842Z 03005KT 18/08 A2994 RMK A01 T01840082  RH  051%=      5-min Rain = 0
KQU1 241843Z 01004KT 19/09 A2994 RMK A01 T01850087  RH  053%=      5-min Rain = 0
KQU1 241844Z 04007KT 19/09 A2994 RMK A01 T01860088  RH  053%=      5-min Rain = 0
KQU1 241845Z 04007KT 19/08 A2994 RMK A01 T01860082  RH  051%=      5-min Rain = 0
KQU1 241846Z 04005KT 19/09 A2994 RMK A01 T01860088  RH  053%=      5-min Rain = 0
KQU1 241847Z 01007KT 19/08 A2994 RMK A01 T01860082  RH  051%=      5-min Rain = 0
KQU1 241848Z 35005KT 19/08 A2994 RMK A01 T01850082  RH  051%=      5-min Rain = 0
KQU1 241849Z 01006KT 19/08 A2993 RMK A01 T01850082  RH  051%=      5-min Rain = 0
KQU1 241850Z 00007KT 19/08 A2993 RMK A01 T01860083  RH  051%=      5-min Rain = 0
KQU1 241851Z 35006KT 19/08 A2993 RMK A01 T01860084  RH  051%=      5-min Rain = 0
KQU1 241852Z 01004KT 19/10 A2993 RMK A01 T01880097  RH  055%=      5-min Rain = 0
KQU1 241853Z 02007KT 19/08 A2993 RMK A01 T01890080  RH  049%=      5-min Rain = 0
KQU1 241854Z 02005KT 19/08 A2993 RMK A01 T01890079  RH  049%=      5-min Rain = 0
KQU1 241855Z 00004KT 19/09 A2993 RMK A01 T01880086  RH  051%=      5-min Rain = 0
KQU1 241856Z 31008KT 19/09 A2993 RMK A01 T01890091  RH  053%=      5-min Rain = 0
KQU1 241857Z 31011KT 19/09 A2993 RMK A01 T01900089  RH  052%=      5-min Rain = 0
KQU1 241858Z 32009KT 19/08 A2993 RMK A01 T01880082  RH  050%=      5-min Rain = 0
KQU1 241859Z 30009KT 19/08 A2993 RMK A01 T01870083  RH  051%=      5-min Rain = 0
KQU1 241900Z 28006KT 19/09 A2993 RMK A01 T01870088  RH  052%=      5-min Rain = 0
KQU1 241901Z 25007KT 19/08 A2993 RMK A01 T01880080  RH  050%=      5-min Rain = 0
KQU1 241902Z 22005KT 19/08 A2993 RMK A01 T01870083  RH  051%=      5-min Rain = 0
KQU1 241903Z 31002KT 19/08 A2993 RMK A01 T01880082  RH  050%=      5-min Rain = 0
KQU1 241904Z 01006KT 19/08 A2993 RMK A01 T01880081  RH  050%=      5-min Rain = 0
KQU1 241905Z 00004G11KT 19/09 A2993 RMK A01 T01900089  RH  052%=      5-min Rain = 0
KQU1 241906Z 00009KT 19/08 A2993 RMK A01 T01900082  RH  050%=      5-min Rain = 0
KQU1 241907Z 02008KT 19/08 A2993 RMK A01 T01890083  RH  050%=      5-min Rain = 0
KQU1 241908Z 35007KT 19/09 A2993 RMK A01 T01890087  RH  052%=      5-min Rain = 0
KQU1 241909Z 35007KT 19/09 A2993 RMK A01 T01890087  RH  051%=      5-min Rain = 0
KQU1 241910Z 35005KT 19/08 A2993 RMK A01 T01890084  RH  051%=      5-min Rain = 0
KQU1 241911Z 34003KT 19/08 A2993 RMK A01 T01890078  RH  049%=      5-min Rain = 0
KQU1 241912Z 34004KT 19/08 A2993 RMK A01 T01880077  RH  048%=      5-min Rain = 0
KQU1 241913Z 31001KT 19/08 A2993 RMK A01 T01880082  RH  050%=      5-min Rain = 0
KQU1 241914Z 33002KT 19/09 A2993 RMK A01 T01890085  RH  051%=      5-min Rain = 0
KQU1 241915Z 33005KT 19/09 A2993 RMK A01 T01910088  RH  051%=      5-min Rain = 0
KQU1 241916Z 29007KT 19/09 A2993 RMK A01 T01910087  RH  051%=      5-min Rain = 0
KQU1 241917Z 29005KT 19/09 A2993 RMK A01 T01910085  RH  050%=      5-min Rain = 0
KQU1 241918Z 29002KT 19/09 A2993 RMK A01 T01920086  RH  050%=      5-min Rain = 0
KQU1 241919Z 27004KT 19/08 A2993 RMK A01 T01920083  RH  049%=      5-min Rain = 0
KQU1 241920Z 30005KT 19/09 A2993 RMK A01 T01920086  RH  050%=      5-min Rain = 0
KQU1 241921Z 31003KT 19/09 A2993 RMK A01 T01930089  RH  051%=      5-min Rain = 0
KQU1 241922Z 34005KT 19/09 A2993 RMK A01 T01940090  RH  051%=      5-min Rain = 0
KQU1 241923Z 31007KT 20/09 A2992 RMK A01 T01950089  RH  050%=      5-min Rain = 0
KQU1 241924Z 35005KT 19/09 A2992 RMK A01 T01940086  RH  050%=      5-min Rain = 0
KQU1 241925Z 35003KT 20/09 A2992 RMK A01 T01960093  RH  052%=      5-min Rain = 0
KQU1 241926Z 32003KT 20/09 A2992 RMK A01 T01960087  RH  049%=      5-min Rain = 0
KQU1 241927Z 30008KT 20/10 A2992 RMK A01 T01970095  RH  052%=      5-min Rain = 0
KQU1 241928Z 32008KT 20/10 A2992 RMK A01 T01980099  RH  053%=      5-min Rain = 0
KQU1 241929Z 31008KT 20/10 A2992 RMK A01 T01980098  RH  053%=      5-min Rain = 0
KQU1 241930Z 28008KT 20/09 A2992 RMK A01 T01980094  RH  051%=      5-min Rain = 0
KQU1 241931Z 27004KT 20/09 A2992 RMK A01 T01960085  RH  049%=      5-min Rain = 0
KQU1 241932Z 32002KT 20/09 A2992 RMK A01 T01960088  RH  050%=      5-min Rain = 0
KQU1 241933Z 30004KT 20/09 A2992 RMK A01 T01960085  RH  049%=      5-min Rain = 0
KQU1 241934Z 33004KT 20/08 A2992 RMK A01 T01950081  RH  048%=      5-min Rain = 0
KQU1 241935Z 35002KT 20/09 A2992 RMK A01 T01950085  RH  049%=      5-min Rain = 0
KQU1 241936Z 02004KT 20/09 A2992 RMK A01 T01960094  RH  052%=      5-min Rain = 0
KQU1 241937Z 01003KT 20/09 A2992 RMK A01 T01970087  RH  049%=      5-min Rain = 0
KQU1 241938Z 01007KT 20/09 A2992 RMK A01 T01970089  RH  050%=      5-min Rain = 0
KQU1 241939Z 01006KT 20/09 A2992 RMK A01 T01970087  RH  049%=      5-min Rain = 0
KQU1 241940Z 35004KT 20/09 A2992 RMK A01 T01960087  RH  049%=      5-min Rain = 0
KQU1 241941Z 32003KT 20/10 A2992 RMK A01 T01970096  RH  052%=      5-min Rain = 0
KQU1 241942Z 30003KT 20/09 A2992 RMK A01 T01970086  RH  048%=      5-min Rain = 0
KQU1 241943Z 31002KT 20/09 A2992 RMK A01 T01980094  RH  051%=      5-min Rain = 0
KQU1 241944Z 30002G7KT 20/10 A2992 RMK A01 T02000096  RH  051%=      5-min Rain = 0
KQU1 241945Z 27004KT 20/09 A2992 RMK A01 T02000085  RH  047%=      5-min Rain = 0
KQU1 241946Z 24004KT 20/08 A2992 RMK A01 T01990081  RH  046%=      5-min Rain = 0
KQU1 241947Z 29006KT 20/08 A2992 RMK A01 T01980084  RH  048%=      5-min Rain = 0
KQU1 241948Z 29003KT 20/08 A2992 RMK A01 T01970079  RH  046%=      5-min Rain = 0
KQU1 241949Z 31007KT 20/08 A2992 RMK A01 T01970083  RH  048%=      5-min Rain = 0
KQU1 241950Z 33007KT 20/08 A2992 RMK A01 T01970084  RH  048%=      5-min Rain = 0
KQU1 241951Z 34006KT 20/08 A2992 RMK A01 T01960079  RH  047%=      5-min Rain = 0
KQU1 241952Z 35006KT 20/08 A2992 RMK A01 T01960084  RH  048%=      5-min Rain = 0
KQU1 241953Z 01004KT 20/08 A2992 RMK A01 T01960078  RH  046%=      5-min Rain = 0
KQU1 241954Z 02005KT 20/08 A2992 RMK A01 T01960081  RH  047%=      5-min Rain = 0
KQU1 241955Z 06002KT 20/08 A2991 RMK A01 T01960081  RH  048%=      5-min Rain = 0
KQU1 241956Z 31006KT 20/09 A2992 RMK A01 T01970089  RH  050%=      5-min Rain = 0
KQU1 241957Z 33005KT 20/08 A2991 RMK A01 T01960077  RH  046%=      5-min Rain = 0
KQU1 241958Z 33006KT 20/09 A2992 RMK A01 T01970089  RH  050%=      5-min Rain = 0
KQU1 241959Z 02004KT 20/08 A2991 RMK A01 T01970080  RH  047%=      5-min Rain = 0
KQU1 242000Z 05004KT 20/08 A2991 RMK A01 T01980082  RH  047%=      5-min Rain = 0
KQU1 242001Z 03006KT 20/08 A2991 RMK A01 T01980079  RH  046%=      5-min Rain = 0
KQU1 242002Z 03004KT 20/09 A2991 RMK A01 T01980089  RH  049%=      5-min Rain = 0
KQU1 242003Z 36004KT 20/10 A2991 RMK A01 T02000095  RH  051%=      5-min Rain = 0
KQU1 242004Z 35005KT 20/09 A2991 RMK A01 T02010086  RH  048%=      5-min Rain = 0
KQU1 242005Z 01002KT 20/08 A2991 RMK A01 T02000079  RH  045%=      5-min Rain = 0
KQU1 242006Z 29003KT 20/08 A2991 RMK A01 T02000082  RH  046%=      5-min Rain = 0
KQU1 242007Z 29005KT 20/09 A2991 RMK A01 T02000090  RH  049%=      5-min Rain = 0
KQU1 242008Z 27004KT 20/08 A2991 RMK A01 T02000080  RH  046%=      5-min Rain = 0
KQU1 242009Z 31006KT 20/08 A2991 RMK A01 T02000084  RH  047%=      5-min Rain = 0
KQU1 242010Z 31004KT 20/08 A2991 RMK A01 T01990075  RH  045%=      5-min Rain = 0
KQU1 242011Z 35004KT 20/08 A2991 RMK A01 T01980080  RH  046%=      5-min Rain = 0
KQU1 242012Z 01004KT 20/08 A2991 RMK A01 T01990081  RH  046%=      5-min Rain = 0
KQU1 242013Z 36003KT 20/08 A2991 RMK A01 T02000080  RH  046%=      5-min Rain = 0
KQU1 242014Z 01002KT 20/08 A2991 RMK A01 T02000082  RH  047%=      5-min Rain = 0
KQU1 242015Z 01001KT 20/08 A2991 RMK A01 T02010081  RH  046%=      5-min Rain = 0
KQU1 242016Z 02002KT 20/08 A2991 RMK A01 T02010081  RH  046%=      5-min Rain = 0
KQU1 242017Z 01000KT 20/08 A2991 RMK A01 T02010075  RH  044%=      5-min Rain = 0
KQU1 242018Z 23000KT 20/08 A2991 RMK A01 T02010084  RH  047%=      5-min Rain = 0
KQU1 242019Z 24003KT 20/08 A2991 RMK A01 T02020078  RH  045%=      5-min Rain = 0
KQU1 242020Z 16001KT 20/08 A2991 RMK A01 T02020075  RH  044%=      5-min Rain = 0
KQU1 242021Z 25000KT 20/08 A2991 RMK A01 T02040082  RH  045%=      5-min Rain = 0
KQU1 242022Z 21004KT 21/09 A2991 RMK A01 T02050091  RH  048%=      5-min Rain = 0
KQU1 242023Z 24006KT 21/09 A2991 RMK A01 T02050094  RH  049%=      5-min Rain = 0
KQU1 242024Z 23008KT 21/09 A299 RMK A01 T02050088  RH  047%=      5-min Rain = 0
KQU1 242025Z 27006KT 21/09 A299 RMK A01 T02050091  RH  048%=      5-min Rain = 0
KQU1 242026Z 29004KT 21/09 A2991 RMK A01 T02050086  RH  046%=      5-min Rain = 0
KQU1 242027Z 29004KT 21/09 A2991 RMK A01 T02050092  RH  048%=      5-min Rain = 0
KQU1 242028Z 29005KT 21/09 A299 RMK A01 T02050085  RH  046%=      5-min Rain = 0
KQU1 242029Z 29004KT 20/08 A299 RMK A01 T02030076  RH  044%=      5-min Rain = 0
KQU1 242030Z 29008KT 20/09 A299 RMK A01 T02030086  RH  047%=      5-min Rain = 0
KQU1 242031Z 28007KT 20/09 A299 RMK A01 T02010086  RH  047%=      5-min Rain = 0
KQU1 242032Z 25005KT 20/09 A299 RMK A01 T02010085  RH  047%=      5-min Rain = 0
KQU1 242033Z 25004KT 20/08 A299 RMK A01 T02010079  RH  046%=      5-min Rain = 0
KQU1 242034Z 24002KT 20/08 A299 RMK A01 T02000077  RH  045%=      5-min Rain = 0
KQU1 242035Z 16002KT 20/08 A299 RMK A01 T02010075  RH  044%=      5-min Rain = 0
KQU1 242036Z 10001KT 20/08 A299 RMK A01 T02020078  RH  044%=      5-min Rain = 0
KQU1 242037Z 16001KT 20/09 A299 RMK A01 T02040089  RH  048%=      5-min Rain = 0
KQU1 242038Z 19003KT 21/09 A299 RMK A01 T02050085  RH  046%=      5-min Rain = 0
KQU1 242039Z 23003KT 20/08 A299 RMK A01 T02040081  RH  045%=      5-min Rain = 0
KQU1 242040Z 24004KT 20/09 A299 RMK A01 T02040085  RH  046%=      5-min Rain = 0
KQU1 242041Z 25006KT 21/09 A299 RMK A01 T02050091  RH  048%=      5-min Rain = 0
KQU1 242042Z 24008KT 21/09 A299 RMK A01 T02050090  RH  048%=      5-min Rain = 0
KQU1 242043Z 26007KT 21/09 A299 RMK A01 T02060088  RH  047%=      5-min Rain = 0
KQU1 242044Z 29007KT 21/08 A299 RMK A01 T02050084  RH  046%=      5-min Rain = 0
KQU1 242045Z 30005KT 20/09 A299 RMK A01 T02040086  RH  047%=      5-min Rain = 0
KQU1 242046Z 27008KT 21/09 A299 RMK A01 T02050093  RH  048%=      5-min Rain = 0
KQU1 242047Z 27009KT 20/09 A299 RMK A01 T02040088  RH  047%=      5-min Rain = 0
KQU1 242048Z 26008KT 21/09 A299 RMK A01 T02050092  RH  048%=      5-min Rain = 0
KQU1 242049Z 26006KT 21/09 A299 RMK A01 T02050089  RH  047%=      5-min Rain = 0
KQU1 242050Z 24007KT 21/09 A2989 RMK A01 T02050091  RH  048%=      5-min Rain = 0
KQU1 242051Z 25004KT 21/08 A2989 RMK A01 T02060080  RH  044%=      5-min Rain = 0
KQU1 242052Z 24006KT 21/08 A2989 RMK A01 T02050081  RH  045%=      5-min Rain = 0
KQU1 242053Z 27007KT 21/09 A2989 RMK A01 T02060088  RH  047%=      5-min Rain = 0
KQU1 242054Z 27005KT 21/08 A2989 RMK A01 T02060082  RH  045%=      5-min Rain = 0
KQU1 242055Z 27007KT 21/08 A2989 RMK A01 T02060084  RH  045%=      5-min Rain = 0
KQU1 242056Z 28007KT 21/09 A2989 RMK A01 T02060086  RH  046%=      5-min Rain = 0
KQU1 242057Z 25006KT 21/09 A2989 RMK A01 T02060091  RH  048%=      5-min Rain = 0
KQU1 242058Z 26004KT 21/09 A2989 RMK A01 T02070093  RH  048%=      5-min Rain = 0
KQU1 242059Z 30006KT 21/09 A2989 RMK A01 T02070087  RH  046%=      5-min Rain = 0
KQU1 242100Z 29002KT 21/08 A2989 RMK A01 T02060079  RH  044%=      5-min Rain = 0
KQU1 242101Z 29003KT 21/09 A2989 RMK A01 T02060085  RH  046%=      5-min Rain = 0
KQU1 242102Z 32004KT 21/09 A2989 RMK A01 T02070092  RH  048%=      5-min Rain = 0
KQU1 242103Z 30005KT 21/09 A2989 RMK A01 T02070089  RH  047%=      5-min Rain = 0
KQU1 242104Z 28006KT 21/09 A2989 RMK A01 T02060088  RH  047%=      5-min Rain = 0
KQU1 242105Z 28005KT 21/08 A2989 RMK A01 T02050083  RH  045%=      5-min Rain = 0
KQU1 242106Z 28005KT 20/08 A2989 RMK A01 T02040084  RH  046%=      5-min Rain = 0
KQU1 242107Z 27005KT 20/08 A2988 RMK A01 T02040079  RH  045%=      5-min Rain = 0
KQU1 242108Z 25002KT 20/08 A2988 RMK A01 T02030080  RH  045%=      5-min Rain = 0
KQU1 242109Z 21001KT 20/08 A2988 RMK A01 T02040079  RH  045%=      5-min Rain = 0
KQU1 242110Z 08002KT 21/09 A2988 RMK A01 T02050086  RH  046%=      5-min Rain = 0
KQU1 242111Z 06003KT 21/08 A2988 RMK A01 T02070081  RH  044%=      5-min Rain = 0
KQU1 242112Z 07002KT 21/08 A2988 RMK A01 T02070082  RH  045%=      5-min Rain = 0
KQU1 242113Z 08000KT 21/09 A2988 RMK A01 T02080088  RH  046%=      5-min Rain = 0
KQU1 242114Z 28003KT 21/09 A2988 RMK A01 T02090092  RH  047%=      5-min Rain = 0
KQU1 242115Z 30003KT 21/08 A2988 RMK A01 T02080080  RH  044%=      5-min Rain = 0
KQU1 242116Z 22004KT 21/09 A2988 RMK A01 T02090088  RH  046%=      5-min Rain = 0
KQU1 242117Z 24005KT 21/09 A2988 RMK A01 T02100089  RH  046%=      5-min Rain = 0
KQU1 242118Z 25005G10KT 21/08 A2988 RMK A01 T02100082  RH  044%=      5-min Rain = 0
KQU1 242119Z 28009KT 21/09 A2988 RMK A01 T02100087  RH  045%=      5-min Rain = 0
KQU1 242120Z 29005KT 21/09 A2988 RMK A01 T02100089  RH  046%=      5-min Rain = 0
KQU1 242121Z 33004KT 21/09 A2988 RMK A01 T02100092  RH  047%=      5-min Rain = 0
KQU1 242122Z 33003KT 21/08 A2988 RMK A01 T02100083  RH  044%=      5-min Rain = 0
KQU1 242123Z 33004KT 21/10 A2987 RMK A01 T02100097  RH  048%=      5-min Rain = 0
KQU1 242124Z 35004KT 21/09 A2987 RMK A01 T02100087  RH  045%=      5-min Rain = 0
KQU1 242125Z 36005KT 21/09 A2987 RMK A01 T02100087  RH  045%=      5-min Rain = 0
KQU1 242126Z 34004KT 21/08 A2987 RMK A01 T02090080  RH  043%=      5-min Rain = 0
KQU1 242127Z 32004KT 21/08 A2987 RMK A01 T02080081  RH  044%=      5-min Rain = 0
KQU1 242128Z 35004KT 21/08 A2987 RMK A01 T02070084  RH  045%=      5-min Rain = 0
KQU1 242129Z 33004KT 21/09 A2987 RMK A01 T02080092  RH  047%=      5-min Rain = 0
KQU1 242130Z 00002KT 21/10 A2987 RMK A01 T02090095  RH  048%=      5-min Rain = 0
KQU1 242131Z 02001KT 21/10 A2987 RMK A01 T02110095  RH  048%=      5-min Rain = 0
KQU1 242132Z 04004KT 21/09 A2987 RMK A01 T02120093  RH  046%=      5-min Rain = 0
KQU1 242133Z 05005KT 21/08 A2987 RMK A01 T02120084  RH  044%=      5-min Rain = 0
KQU1 242134Z 05004KT 21/09 A2987 RMK A01 T02120088  RH  045%=      5-min Rain = 0
KQU1 242135Z 05006KT 21/08 A2987 RMK A01 T02110080  RH  043%=      5-min Rain = 0
KQU1 242136Z 05006KT 21/08 A2987 RMK A01 T02090078  RH  043%=      5-min Rain = 0
KQU1 242137Z 04004KT 21/07 A2987 RMK A01 T02080072  RH  041%=      5-min Rain = 0
KQU1 242138Z 04002KT 21/08 A2987 RMK A01 T02070076  RH  043%=      5-min Rain = 0
KQU1 242139Z 35001KT 21/09 A2987 RMK A01 T02070087  RH  046%=      5-min Rain = 0
KQU1 242140Z 22001KT 21/09 A2987 RMK A01 T02090088  RH  046%=      5-min Rain = 0
KQU1 242141Z 20001KT 21/10 A2987 RMK A01 T02120095  RH  047%=      5-min Rain = 0
KQU1 242142Z 04001KT 21/09 A2987 RMK A01 T02140092  RH  046%=      5-min Rain = 0
KQU1 242143Z 04002KT 22/09 A2987 RMK A01 T02150088  RH  044%=      5-min Rain = 0
KQU1 242144Z 02003KT 21/08 A2987 RMK A01 T02140080  RH  042%=      5-min Rain = 0
KQU1 242145Z 01003KT 21/08 A2987 RMK A01 T02120080  RH  043%=      5-min Rain = 0
KQU1 242146Z 02003KT 21/08 A2987 RMK A01 T02100080  RH  043%=      5-min Rain = 0
KQU1 242147Z 03001KT 21/08 A2987 RMK A01 T02090081  RH  044%=      5-min Rain = 0
KQU1 242148Z 00000KT 21/08 A2987 RMK A01 T02090080  RH  043%=      5-min Rain = 0
KQU1 242149Z 11000KT 21/08 A2987 RMK A01 T02090078  RH  043%=      5-min Rain = 0
KQU1 242150Z 15001KT 21/08 A2987 RMK A01 T02100084  RH  044%=      5-min Rain = 0
KQU1 242151Z 21002KT 21/08 A2987 RMK A01 T02100082  RH  044%=      5-min Rain = 0
KQU1 242152Z 21003KT 21/08 A2987 RMK A01 T02090079  RH  043%=      5-min Rain = 0
KQU1 242153Z 21003KT 21/09 A2987 RMK A01 T02090085  RH  045%=      5-min Rain = 0
KQU1 242154Z 23002KT 21/08 A2987 RMK A01 T02080083  RH  044%=      5-min Rain = 0
KQU1 242155Z 28002KT 21/09 A2987 RMK A01 T02080086  RH  045%=      5-min Rain = 0
KQU1 242156Z 30003KT 21/09 A2987 RMK A01 T02090091  RH  047%=      5-min Rain = 0
KQU1 242157Z 32005KT 21/09 A2987 RMK A01 T02090086  RH  045%=      5-min Rain = 0
KQU1 242158Z 27003KT 21/08 A2987 RMK A01 T02080083  RH  045%=      5-min Rain = 0
KQU1 242159Z 22004KT 21/09 A2987 RMK A01 T02080088  RH  046%=      5-min Rain = 0
KQU1 242200Z 14004KT 21/09 A2987 RMK A01 T02080086  RH  045%=      5-min Rain = 0
KQU1 242201Z 14006KT 21/09 A2987 RMK A01 T02090092  RH  047%=      5-min Rain = 0
KQU1 242202Z 13004KT 21/09 A2987 RMK A01 T02090090  RH  046%=      5-min Rain = 0
KQU1 242203Z 10004KT 21/09 A2987 RMK A01 T02100088  RH  045%=      5-min Rain = 0
KQU1 242204Z 10005KT 21/09 A2987 RMK A01 T02090086  RH  045%=      5-min Rain = 0
KQU1 242205Z 10004KT 21/08 A2987 RMK A01 T02090080  RH  043%=      5-min Rain = 0
KQU1 242206Z 13004KT 21/09 A2987 RMK A01 T02090088  RH  046%=      5-min Rain = 0
KQU1 242207Z 15005KT 21/09 A2987 RMK A01 T02090089  RH  046%=      5-min Rain = 0
KQU1 242208Z 13004KT 21/09 A2987 RMK A01 T02080088  RH  046%=      5-min Rain = 0
KQU1 242209Z 11003KT 21/08 A2987 RMK A01 T02080079  RH  043%=      5-min Rain = 0
KQU1 242210Z 12005KT 21/09 A2987 RMK A01 T02080085  RH  045%=      5-min Rain = 0
KQU1 242211Z 15005KT 21/09 A2987 RMK A01 T02080089  RH  046%=      5-min Rain = 0
KQU1 242212Z 14007KT 21/09 A2987 RMK A01 T02080090  RH  047%=      5-min Rain = 0
KQU1 242213Z 14007KT 21/09 A2987 RMK A01 T02080085  RH  045%=      5-min Rain = 0
KQU1 242214Z 15005KT 21/08 A2987 RMK A01 T02070081  RH  044%=      5-min Rain = 0
KQU1 242215Z 14005KT 21/09 A2987 RMK A01 T02070086  RH  046%=      5-min Rain = 0
KQU1 242216Z 13005KT 21/09 A2987 RMK A01 T02080092  RH  047%=      5-min Rain = 0
KQU1 242217Z 13007KT 21/09 A2987 RMK A01 T02090087  RH  045%=      5-min Rain = 0
KQU1 242218Z 12008KT 21/09 A2987 RMK A01 T02090094  RH  048%=      5-min Rain = 0
KQU1 242219Z 12010KT 21/09 A2987 RMK A01 T02080094  RH  048%=      5-min Rain = 0
KQU1 242220Z 12009KT 21/10 A2987 RMK A01 T02060096  RH  049%=      5-min Rain = 0
KQU1 242221Z 12009KT 21/10 A2987 RMK A01 T02060100  RH  051%=      5-min Rain = 0
KQU1 242222Z 11008KT 21/10 A2987 RMK A01 T02050100  RH  051%=      5-min Rain = 0
KQU1 242223Z 11011KT 20/10 A2987 RMK A01 T02040096  RH  050%=      5-min Rain = 0
KQU1 242224Z 11008KT 20/10 A2987 RMK A01 T02030101  RH  052%=      5-min Rain = 0
KQU1 242225Z 11011KT 20/10 A2987 RMK A01 T02030098  RH  051%=      5-min Rain = 0
KQU1 242226Z 10010KT 20/10 A2987 RMK A01 T02010098  RH  051%=      5-min Rain = 0
KQU1 242227Z 11008KT 20/10 A2987 RMK A01 T02010101  RH  052%=      5-min Rain = 0
KQU1 242228Z 10011KT 20/10 A2987 RMK A01 T02000099  RH  052%=      5-min Rain = 0
KQU1 242229Z 10011KT 20/10 A2987 RMK A01 T01990096  RH  051%=      5-min Rain = 0
KQU1 242230Z 11011KT 20/10 A2987 RMK A01 T01990097  RH  052%=      5-min Rain = 0
KQU1 242231Z 11009KT 20/10 A2987 RMK A01 T01980097  RH  052%=      5-min Rain = 0
KQU1 242232Z 12009KT 20/10 A2987 RMK A01 T01990101  RH  053%=      5-min Rain = 0
KQU1 242233Z 13009KT 20/10 A2987 RMK A01 T01990097  RH  052%=      5-min Rain = 0
KQU1 242234Z 13011KT 20/09 A2987 RMK A01 T01980093  RH  051%=      5-min Rain = 0
KQU1 242235Z 12009KT 20/09 A2987 RMK A01 T01980093  RH  051%=      5-min Rain = 0
KQU1 242236Z 12010KT 20/09 A2987 RMK A01 T01980094  RH  051%=      5-min Rain = 0
KQU1 242237Z 11011KT 20/09 A2987 RMK A01 T01970091  RH  050%=      5-min Rain = 0
KQU1 242238Z 12010KT 20/09 A2987 RMK A01 T01970093  RH  051%=      5-min Rain = 0
KQU1 242239Z 12010KT 20/10 A2987 RMK A01 T01970095  RH  052%=      5-min Rain = 0
KQU1 242240Z 13009KT 20/10 A2987 RMK A01 T01970097  RH  053%=      5-min Rain = 0
KQU1 242241Z 13011KT 20/10 A2987 RMK A01 T01970099  RH  053%=      5-min Rain = 0
KQU1 242242Z 13013KT 20/10 A2987 RMK A01 T01960096  RH  052%=      5-min Rain = 0
KQU1 242243Z 13012KT 20/10 A2987 RMK A01 T01960096  RH  052%=      5-min Rain = 0
KQU1 242244Z 13010KT 20/10 A2987 RMK A01 T01960099  RH  054%=      5-min Rain = 0
KQU1 242245Z 12012KT 20/10 A2987 RMK A01 T01960099  RH  054%=      5-min Rain = 0
KQU1 242246Z 12010KT 20/10 A2987 RMK A01 T01960099  RH  053%=      5-min Rain = 0
KQU1 242247Z 12011KT 20/10 A2987 RMK A01 T01960099  RH  054%=      5-min Rain = 0
KQU1 242248Z 12012KT 20/10 A2987 RMK A01 T01960097  RH  053%=      5-min Rain = 0
KQU1 242249Z 12012KT 20/10 A2987 RMK A01 T01950095  RH  052%=      5-min Rain = 0
KQU1 242250Z 13011KT 20/10 A2987 RMK A01 T01950096  RH  053%=      5-min Rain = 0
KQU1 242251Z 14010KT 20/10 A2987 RMK A01 T01950098  RH  053%=      5-min Rain = 0
KQU1 242252Z 14010KT 20/10 A2987 RMK A01 T01950095  RH  052%=      5-min Rain = 0
KQU1 242253Z 13010KT 20/10 A2987 RMK A01 T01960096  RH  053%=      5-min Rain = 0
KQU1 242254Z 14011KT 20/09 A2987 RMK A01 T01960094  RH  052%=      5-min Rain = 0
KQU1 242255Z 13011KT 20/10 A2987 RMK A01 T01960095  RH  052%=      5-min Rain = 0
KQU1 242256Z 13010KT 20/10 A2987 RMK A01 T01960096  RH  052%=      5-min Rain = 0
KQU1 242257Z 13009KT 20/10 A2987 RMK A01 T01960095  RH  052%=      5-min Rain = 0
KQU1 242258Z 13010KT 20/10 A2987 RMK A01 T01960096  RH  052%=      5-min Rain = 0
KQU1 242259Z 13009KT 20/09 A2987 RMK A01 T01960094  RH  052%=      5-min Rain = 0
KQU1 242300Z 14008KT 20/10 A2987 RMK A01 T01960096  RH  052%=      5-min Rain = 0
KQU1 242301Z 13009KT 20/10 A2987 RMK A01 T01960097  RH  053%=      5-min Rain = 0
KQU1 242302Z 13007KT 20/10 A2987 RMK A01 T01970100  RH  054%=      5-min Rain = 0
KQU1 242303Z 13008KT 20/10 A2987 RMK A01 T01970103  RH  055%=      5-min Rain = 0
KQU1 242304Z 12008KT 20/10 A2987 RMK A01 T01970101  RH  054%=      5-min Rain = 0
KQU1 242305Z 12008KT 20/10 A2987 RMK A01 T01970098  RH  053%=      5-min Rain = 0
KQU1 242306Z 13008KT 20/10 A2987 RMK A01 T01970098  RH  053%=      5-min Rain = 0
KQU1 242307Z 13009KT 20/10 A2987 RMK A01 T01980097  RH  052%=      5-min Rain = 0
KQU1 242308Z 14007KT 20/10 A2987 RMK A01 T01990097  RH  052%=      5-min Rain = 0
KQU1 242309Z 14009KT 20/10 A2987 RMK A01 T02010101  RH  052%=      5-min Rain = 0
KQU1 242310Z 13009KT 20/10 A2987 RMK A01 T02030101  RH  052%=      5-min Rain = 0
KQU1 242311Z 13009KT 21/10 A2987 RMK A01 T02050102  RH  052%=      5-min Rain = 0
KQU1 242312Z 13011KT 21/10 A2987 RMK A01 T02070099  RH  050%=      5-min Rain = 0
KQU1 242313Z 14009KT 21/10 A2987 RMK A01 T02070098  RH  050%=      5-min Rain = 0
KQU1 242314Z 15008KT 21/10 A2987 RMK A01 T02070099  RH  050%=      5-min Rain = 0
KQU1 242315Z 14008KT 21/10 A2987 RMK A01 T02070100  RH  050%=      5-min Rain = 0
KQU1 242316Z 14009KT 21/10 A2987 RMK A01 T02070097  RH  049%=      5-min Rain = 0
KQU1 242317Z 14009KT 21/10 A2987 RMK A01 T02070098  RH  050%=      5-min Rain = 0
KQU1 242318Z 15010KT 21/10 A2986 RMK A01 T02060099  RH  050%=      5-min Rain = 0
KQU1 242319Z 15011KT 20/09 A2986 RMK A01 T02030094  RH  050%=      5-min Rain = 0
KQU1 242320Z 14009KT 20/09 A2986 RMK A01 T02010093  RH  050%=      5-min Rain = 0
KQU1 242321Z 14009KT 20/09 A2986 RMK A01 T01990094  RH  051%=      5-min Rain = 0
KQU1 242322Z 13010KT 20/09 A2986 RMK A01 T01980094  RH  051%=      5-min Rain = 0
KQU1 242323Z 13009KT 20/10 A2986 RMK A01 T01980098  RH  052%=      5-min Rain = 0
KQU1 242324Z 14010KT 20/10 A2986 RMK A01 T01980097  RH  052%=      5-min Rain = 0
KQU1 242325Z 14010KT 20/10 A2986 RMK A01 T01990097  RH  052%=      5-min Rain = 0
KQU1 242326Z 13009KT 20/10 A2986 RMK A01 T02000099  RH  052%=      5-min Rain = 0
KQU1 242327Z 15009KT 20/10 A2986 RMK A01 T02020104  RH  053%=      5-min Rain = 0
KQU1 242328Z 14009KT 20/10 A2986 RMK A01 T02030099  RH  051%=      5-min Rain = 0
KQU1 242329Z 15009KT 20/10 A2986 RMK A01 T02040097  RH  050%=      5-min Rain = 0
KQU1 242330Z 15008KT 20/10 A2986 RMK A01 T02040099  RH  051%=      5-min Rain = 0
KQU1 242331Z 16008KT 20/10 A2986 RMK A01 T02030099  RH  051%=      5-min Rain = 0
KQU1 242332Z 15009KT 20/10 A2986 RMK A01 T02010097  RH  051%=      5-min Rain = 0
KQU1 242333Z 15011KT 20/10 A2986 RMK A01 T01990100  RH  053%=      5-min Rain = 0
KQU1 242334Z 15011KT 20/10 A2986 RMK A01 T01980103  RH  054%=      5-min Rain = 0
KQU1 242335Z 15011KT 20/11 A2986 RMK A01 T01960105  RH  056%=      5-min Rain = 0
KQU1 242336Z 15009KT 20/11 A2986 RMK A01 T01960108  RH  057%=      5-min Rain = 0
KQU1 242337Z 15010KT 20/11 A2986 RMK A01 T01970108  RH  056%=      5-min Rain = 0
KQU1 242338Z 16009KT 20/11 A2986 RMK A01 T01970108  RH  056%=      5-min Rain = 0
KQU1 242339Z 16008KT 20/11 A2986 RMK A01 T01980114  RH  058%=      5-min Rain = 0
KQU1 242340Z 17009KT 20/11 A2986 RMK A01 T01990111  RH  057%=      5-min Rain = 0
KQU1 242341Z 17011KT 20/11 A2986 RMK A01 T01990106  RH  055%=      5-min Rain = 0
KQU1 242342Z 16011KT 20/10 A2986 RMK A01 T01980103  RH  054%=      5-min Rain = 0
KQU1 242343Z 16009KT 20/11 A2986 RMK A01 T01980106  RH  055%=      5-min Rain = 0
KQU1 242344Z 16009KT 20/11 A2986 RMK A01 T01980106  RH  055%=      5-min Rain = 0
KQU1 242345Z 16008KT 20/10 A2986 RMK A01 T01980103  RH  054%=      5-min Rain = 0
KQU1 242346Z 16008KT 20/11 A2986 RMK A01 T01980108  RH  056%=      5-min Rain = 0
KQU1 242347Z 16008KT 20/11 A2986 RMK A01 T01990108  RH  056%=      5-min Rain = 0
KQU1 242348Z 15009KT 20/11 A2986 RMK A01 T02000108  RH  055%=      5-min Rain = 0
KQU1 242349Z 16009KT 20/11 A2986 RMK A01 T02010110  RH  056%=      5-min Rain = 0
KQU1 242350Z 16010KT 20/11 A2986 RMK A01 T02010109  RH  055%=      5-min Rain = 0
KQU1 242351Z 16010KT 20/11 A2986 RMK A01 T02000108  RH  055%=      5-min Rain = 0
KQU1 242352Z 16011KT 20/11 A2986 RMK A01 T01990106  RH  055%=      5-min Rain = 0
KQU1 242353Z 17011KT 20/11 A2986 RMK A01 T01980106  RH  055%=      5-min Rain = 0
KQU1 242354Z 17011KT 20/10 A2986 RMK A01 T01970100  RH  053%=      5-min Rain = 0
KQU1 242355Z 15010KT 20/10 A2986 RMK A01 T01960103  RH  055%=      5-min Rain = 0
KQU1 242356Z 16010KT 20/10 A2986 RMK A01 T01950103  RH  055%=      5-min Rain = 0
KQU1 242357Z 16009KT 20/10 A2986 RMK A01 T01950104  RH  055%=      5-min Rain = 0
KQU1 242358Z 15009KT 20/11 A2986 RMK A01 T01950105  RH  056%=      5-min Rain = 0
KQU1 242359Z 17007KT 20/11 A2986 RMK A01 T01960107  RH  057%=      5-min Rain = 0
KQU1 250000Z 17008KT 20/11 A2986 RMK A01 T01960106  RH  056%=      5-min Rain = 0
KQU1 250001Z 16008KT 20/11 A2986 RMK A01 T01960108  RH  056%=      5-min Rain = 0
KQU1 250002Z 17008KT 20/11 A2986 RMK A01 T01970110  RH  057%=      5-min Rain = 0
KQU1 250003Z 17010KT 20/10 A2986 RMK A01 T01960104  RH  055%=      5-min Rain = 0
KQU1 250004Z 17010KT 20/10 A2985 RMK A01 T01960104  RH  055%=      5-min Rain = 0
KQU1 250005Z 17009KT 20/11 A2985 RMK A01 T01950106  RH  056%=      5-min Rain = 0
KQU1 250006Z 17009KT 20/10 A2985 RMK A01 T01950102  RH  055%=      5-min Rain = 0
KQU1 250007Z 16008KT 19/10 A2985 RMK A01 T01940102  RH  055%=      5-min Rain = 0
KQU1 250008Z 17008KT 19/10 A2985 RMK A01 T01940103  RH  056%=      5-min Rain = 0
KQU1 250009Z 18009KT 19/10 A2985 RMK A01 T01930103  RH  056%=      5-min Rain = 0
KQU1 250010Z 18009KT 19/10 A2985 RMK A01 T01930102  RH  056%=      5-min Rain = 0
KQU1 250011Z 18008KT 19/10 A2985 RMK A01 T01930104  RH  056%=      5-min Rain = 0
KQU1 250012Z 17009KT 19/10 A2985 RMK A01 T01920102  RH  056%=      5-min Rain = 0
KQU1 250013Z 17009KT 19/10 A2985 RMK A01 T01920101  RH  056%=      5-min Rain = 0
KQU1 250014Z 17008KT 19/10 A2985 RMK A01 T01920099  RH  055%=      5-min Rain = 0
KQU1 250015Z 17007KT 19/10 A2985 RMK A01 T01920102  RH  056%=      5-min Rain = 0
KQU1 250016Z 18008KT 19/10 A2985 RMK A01 T01920104  RH  057%=      5-min Rain = 0
KQU1 250017Z 18008KT 19/10 A2985 RMK A01 T01920104  RH  057%=      5-min Rain = 0
KQU1 250018Z 18007KT 19/10 A2985 RMK A01 T01920103  RH  057%=      5-min Rain = 0
KQU1 250019Z 17006KT 19/11 A2985 RMK A01 T01920106  RH  058%=      5-min Rain = 0
KQU1 250020Z 17007KT 19/10 A2985 RMK A01 T01920102  RH  056%=      5-min Rain = 0
KQU1 250021Z 16007KT 19/10 A2985 RMK A01 T01920104  RH  057%=      5-min Rain = 0
KQU1 250022Z 16007KT 19/11 A2985 RMK A01 T01920105  RH  057%=      5-min Rain = 0
KQU1 250023Z 16007KT 19/10 A2985 RMK A01 T01920104  RH  057%=      5-min Rain = 0
KQU1 250024Z 16006KT 19/11 A2985 RMK A01 T01920105  RH  057%=      5-min Rain = 0
KQU1 250025Z 17006KT 19/11 A2985 RMK A01 T01920105  RH  057%=      5-min Rain = 0
KQU1 250026Z 16006KT 19/11 A2985 RMK A01 T01920105  RH  057%=      5-min Rain = 0
KQU1 250027Z 16006KT 19/11 A2985 RMK A01 T01920107  RH  058%=      5-min Rain = 0
KQU1 250028Z 16006KT 19/11 A2985 RMK A01 T01920107  RH  058%=      5-min Rain = 0
KQU1 250029Z 17005KT 19/11 A2985 RMK A01 T01920108  RH  058%=      5-min Rain = 0
KQU1 250030Z 16006KT 19/11 A2985 RMK A01 T01920109  RH  059%=      5-min Rain = 0
KQU1 250031Z 16007KT 19/11 A2985 RMK A01 T01910107  RH  058%=      5-min Rain = 0
KQU1 250032Z 17007KT 19/11 A2985 RMK A01 T01910108  RH  058%=      5-min Rain = 0
KQU1 250033Z 17007KT 19/11 A2985 RMK A01 T01910107  RH  058%=      5-min Rain = 0
KQU1 250034Z 17006KT 19/11 A2985 RMK A01 T01900108  RH  059%=      5-min Rain = 0
KQU1 250035Z 17007KT 19/11 A2985 RMK A01 T01900107  RH  059%=      5-min Rain = 0
KQU1 250036Z 17006KT 19/11 A2985 RMK A01 T01900110  RH  060%=      5-min Rain = 0
KQU1 250037Z 17007KT 19/11 A2985 RMK A01 T01900109  RH  059%=      5-min Rain = 0
KQU1 250038Z 17008KT 19/11 A2985 RMK A01 T01890105  RH  058%=      5-min Rain = 0
KQU1 250039Z 17008KT 19/11 A2985 RMK A01 T01880106  RH  059%=      5-min Rain = 0
KQU1 250040Z 16007KT 19/10 A2985 RMK A01 T01870104  RH  058%=      5-min Rain = 0
KQU1 250041Z 17007KT 19/11 A2985 RMK A01 T01870105  RH  059%=      5-min Rain = 0
KQU1 250042Z 17008KT 19/11 A2985 RMK A01 T01860105  RH  059%=      5-min Rain = 0
KQU1 250043Z 18008KT 19/10 A2985 RMK A01 T01860103  RH  058%=      5-min Rain = 0
KQU1 250044Z 18008KT 19/10 A2985 RMK A01 T01860103  RH  059%=      5-min Rain = 0
KQU1 250045Z 18008KT 19/10 A2985 RMK A01 T01860103  RH  059%=      5-min Rain = 0
KQU1 250046Z 18008KT 19/10 A2985 RMK A01 T01850104  RH  059%=      5-min Rain = 0
KQU1 250047Z 17008KT 19/10 A2985 RMK A01 T01850104  RH  059%=      5-min Rain = 0
KQU1 250048Z 17007KT 19/11 A2985 RMK A01 T01850106  RH  060%=      5-min Rain = 0
KQU1 250049Z 17006KT 18/11 A2985 RMK A01 T01840107  RH  061%=      5-min Rain = 0
KQU1 250050Z 17008KT 18/11 A2985 RMK A01 T01840107  RH  061%=      5-min Rain = 0
KQU1 250051Z 18007KT 18/10 A2985 RMK A01 T01830104  RH  060%=      5-min Rain = 0
KQU1 250052Z 18006KT 18/11 A2985 RMK A01 T01830107  RH  061%=      5-min Rain = 0
KQU1 250053Z 18007KT 18/11 A2985 RMK A01 T01820106  RH  061%=      5-min Rain = 0
KQU1 250054Z 18008KT 18/11 A2985 RMK A01 T01820106  RH  061%=      5-min Rain = 0
KQU1 250055Z 19007KT 18/11 A2985 RMK A01 T01810105  RH  061%=      5-min Rain = 0
KQU1 250056Z 18006KT 18/11 A2985 RMK A01 T01810108  RH  063%=      5-min Rain = 0
KQU1 250057Z 19006KT 18/11 A2985 RMK A01 T01800108  RH  063%=      5-min Rain = 0
KQU1 250058Z 19006KT 18/11 A2985 RMK A01 T01790109  RH  064%=      5-min Rain = 0
KQU1 250059Z 19006KT 18/11 A2985 RMK A01 T01780110  RH  064%=      5-min Rain = 0
KQU1 250100Z 19006KT 18/11 A2985 RMK A01 T01770110  RH  065%=      5-min Rain = 0
KQU1 250101Z 19006KT 18/11 A2985 RMK A01 T01760112  RH  066%=      5-min Rain = 0
KQU1 250102Z 19006KT 18/11 A2985 RMK A01 T01760113  RH  067%=      5-min Rain = 0
KQU1 250103Z 19005KT 18/11 A2985 RMK A01 T01750114  RH  067%=      5-min Rain = 0
KQU1 250104Z 19005KT 17/11 A2985 RMK A01 T01730114  RH  068%=      5-min Rain = 0
KQU1 250105Z 19005KT 17/11 A2985 RMK A01 T01720114  RH  069%=      5-min Rain = 0
KQU1 250106Z 19006KT 17/12 A2985 RMK A01 T01710115  RH  069%=      5-min Rain = 0
KQU1 250107Z 19006KT 17/12 A2985 RMK A01 T01700115  RH  070%=      5-min Rain = 0
KQU1 250108Z 19006KT 17/12 A2985 RMK A01 T01690115  RH  070%=      5-min Rain = 0
KQU1 250109Z 19006KT 17/12 A2985 RMK A01 T01680115  RH  071%=      5-min Rain = 0
KQU1 250110Z 19006KT 17/11 A2985 RMK A01 T01670114  RH  071%=      5-min Rain = 0
KQU1 250111Z 19006KT 17/11 A2985 RMK A01 T01660114  RH  071%=      5-min Rain = 0
KQU1 250112Z 19006KT 17/11 A2985 RMK A01 T01650114  RH  072%=      5-min Rain = 0
KQU1 250113Z 19006KT 16/11 A2985 RMK A01 T01640114  RH  072%=      5-min Rain = 0
KQU1 250114Z 19006KT 16/11 A2985 RMK A01 T01630114  RH  073%=      5-min Rain = 0
KQU1 250115Z 19006KT 16/11 A2985 RMK A01 T01610114  RH  074%=      5-min Rain = 0
KQU1 250116Z 19006KT 16/11 A2985 RMK A01 T01600114  RH  074%=      5-min Rain = 0
KQU1 250117Z 19006KT 16/12 A2985 RMK A01 T01600115  RH  075%=      5-min Rain = 0
KQU1 250118Z 19006KT 16/12 A2985 RMK A01 T01590115  RH  075%=      5-min Rain = 0
KQU1 250119Z 19006KT 16/11 A2985 RMK A01 T01570114  RH  075%=      5-min Rain = 0
KQU1 250120Z 19006KT 16/11 A2985 RMK A01 T01560114  RH  076%=      5-min Rain = 0
KQU1 250121Z 19006KT 16/11 A2985 RMK A01 T01550114  RH  076%=      5-min Rain = 0
KQU1 250122Z 19007KT 15/11 A2985 RMK A01 T01540114  RH  077%=      5-min Rain = 0
KQU1 250123Z 19007KT 15/11 A2985 RMK A01 T01540114  RH  077%=      5-min Rain = 0
KQU1 250124Z 20007KT 15/11 A2985 RMK A01 T01530114  RH  078%=      5-min Rain = 0
KQU1 250125Z 20007KT 15/11 A2985 RMK A01 T01520114  RH  078%=      5-min Rain = 0
KQU1 250126Z 20006KT 15/11 A2985 RMK A01 T01520114  RH  078%=      5-min Rain = 0
KQU1 250127Z 20006KT 15/11 A2985 RMK A01 T01510114  RH  079%=      5-min Rain = 0
KQU1 250128Z 20006KT 15/12 A2985 RMK A01 T01500115  RH  079%=      5-min Rain = 0
KQU1 250129Z 20006KT 15/11 A2985 RMK A01 T01490114  RH  079%=      5-min Rain = 0
KQU1 250130Z 20007KT 15/11 A2985 RMK A01 T01490114  RH  080%=      5-min Rain = 0
KQU1 250131Z 20007KT 15/11 A2985 RMK A01 T01480114  RH  080%=      5-min Rain = 0
KQU1 250132Z 20007KT 15/11 A2986 RMK A01 T01470114  RH  080%=      5-min Rain = 0
KQU1 250133Z 20007KT 15/11 A2985 RMK A01 T01470114  RH  080%=      5-min Rain = 0
KQU1 250134Z 20007KT 15/11 A2985 RMK A01 T01470114  RH  080%=      5-min Rain = 0
KQU1 250135Z 20007KT 15/11 A2985 RMK A01 T01470114  RH  080%=      5-min Rain = 0
KQU1 250136Z 20007KT 15/11 A2985 RMK A01 T01470113  RH  080%=      5-min Rain = 0
KQU1 250137Z 20007KT 15/11 A2985 RMK A01 T01470113  RH  080%=      5-min Rain = 0
KQU1 250138Z 20007KT 15/11 A2985 RMK A01 T01470113  RH  080%=      5-min Rain = 0
KQU1 250139Z 20007KT 15/11 A2985 RMK A01 T01470113  RH  080%=      5-min Rain = 0
KQU1 250140Z 20007KT 15/11 A2985 RMK A01 T01460113  RH  080%=      5-min Rain = 0
KQU1 250141Z 20007KT 15/11 A2985 RMK A01 T01460113  RH  080%=      5-min Rain = 0
KQU1 250142Z 20007KT 15/11 A2985 RMK A01 T01460113  RH  080%=      5-min Rain = 0
KQU1 250143Z 20007KT 15/11 A2985 RMK A01 T01460113  RH  080%=      5-min Rain = 0
KQU1 250144Z 20007KT 15/11 A2986 RMK A01 T01450112  RH  081%=      5-min Rain = 0
KQU1 250145Z 20007KT 15/11 A2986 RMK A01 T01450112  RH  081%=      5-min Rain = 0
KQU1 250146Z 20007KT 15/11 A2986 RMK A01 T01450112  RH  081%=      5-min Rain = 0
KQU1 250147Z 21007KT 14/11 A2986 RMK A01 T01440112  RH  081%=      5-min Rain = 0
KQU1 250148Z 20007KT 14/11 A2986 RMK A01 T01440112  RH  081%=      5-min Rain = 0
KQU1 250149Z 20007KT 14/11 A2986 RMK A01 T01430112  RH  081%=      5-min Rain = 0
KQU1 250150Z 20006KT 14/11 A2986 RMK A01 T01430112  RH  081%=      5-min Rain = 0
KQU1 250151Z 20006KT 14/11 A2986 RMK A01 T01430112  RH  081%=      5-min Rain = 0
KQU1 250152Z 20006KT 14/11 A2986 RMK A01 T01430111  RH  081%=      5-min Rain = 0
KQU1 250153Z 19006KT 14/11 A2986 RMK A01 T01430111  RH  081%=      5-min Rain = 0
KQU1 250154Z 19006KT 14/11 A2986 RMK A01 T01430111  RH  081%=      5-min Rain = 0
KQU1 250155Z 19006KT 14/11 A2986 RMK A01 T01430111  RH  081%=      5-min Rain = 0
KQU1 250156Z 19006KT 14/11 A2986 RMK A01 T01430111  RH  081%=      5-min Rain = 0
KQU1 250157Z 19006KT 14/11 A2986 RMK A01 T01430111  RH  081%=      5-min Rain = 0
KQU1 250158Z 19006KT 14/11 A2986 RMK A01 T01420111  RH  082%=      5-min Rain = 0
KQU1 250159Z 19006KT 14/11 A2986 RMK A01 T01420111  RH  082%=      5-min Rain = 0
KQU1 250200Z 19006KT 14/11 A2986 RMK A01 T01410111  RH  082%=      5-min Rain = 0
KQU1 250201Z 19006KT 14/11 A2986 RMK A01 T01410111  RH  082%=      5-min Rain = 0
KQU1 250202Z 19006KT 14/11 A2986 RMK A01 T01410111  RH  082%=      5-min Rain = 0
KQU1 250203Z 19006KT 14/11 A2986 RMK A01 T01400111  RH  083%=      5-min Rain = 0
KQU1 250204Z 19007KT 14/11 A2986 RMK A01 T01400111  RH  083%=      5-min Rain = 0
KQU1 250205Z 19007KT 14/11 A2986 RMK A01 T01400111  RH  083%=      5-min Rain = 0
KQU1 250206Z 19007KT 14/11 A2986 RMK A01 T01400111  RH  082%=      5-min Rain = 0
KQU1 250207Z 19007KT 14/11 A2986 RMK A01 T01410111  RH  082%=      5-min Rain = 0
KQU1 250208Z 19007KT 14/11 A2986 RMK A01 T01410111  RH  082%=      5-min Rain = 0
KQU1 250209Z 19006KT 14/11 A2986 RMK A01 T01410111  RH  082%=      5-min Rain = 0
KQU1 250210Z 19006KT 14/11 A2986 RMK A01 T01410111  RH  082%=      5-min Rain = 0
KQU1 250211Z 18006KT 14/11 A2986 RMK A01 T01410110  RH  082%=      5-min Rain = 0
KQU1 250212Z 18006KT 14/11 A2986 RMK A01 T01410110  RH  081%=      5-min Rain = 0
KQU1 250213Z 18007KT 14/11 A2986 RMK A01 T01410110  RH  081%=      5-min Rain = 0
KQU1 250214Z 18007KT 14/11 A2987 RMK A01 T01410109  RH  081%=      5-min Rain = 0
KQU1 250215Z 18006KT 14/11 A2987 RMK A01 T01420110  RH  081%=      5-min Rain = 0
KQU1 250216Z 18007KT 14/11 A2987 RMK A01 T01420111  RH  081%=      5-min Rain = 0
KQU1 250217Z 18007KT 14/11 A2987 RMK A01 T01420111  RH  081%=      5-min Rain = 0
KQU1 250218Z 18007KT 14/11 A2987 RMK A01 T01430111  RH  081%=      5-min Rain = 0
KQU1 250219Z 18007KT 14/11 A2987 RMK A01 T01430111  RH  081%=      5-min Rain = 0
KQU1 250220Z 17007KT 14/11 A2987 RMK A01 T01430111  RH  081%=      5-min Rain = 0
KQU1 250221Z 17007KT 14/11 A2987 RMK A01 T01420111  RH  082%=      5-min Rain = 0
KQU1 250222Z 17007KT 14/11 A2987 RMK A01 T01420111  RH  082%=      5-min Rain = 0
KQU1 250223Z 17006KT 14/11 A2987 RMK A01 T01420112  RH  082%=      5-min Rain = 0
KQU1 250224Z 17006KT 14/11 A2987 RMK A01 T01410111  RH  082%=      5-min Rain = 0
KQU1 250225Z 16006KT 14/11 A2987 RMK A01 T01410111  RH  082%=      5-min Rain = 0
KQU1 250226Z 16006KT 14/11 A2987 RMK A01 T01400111  RH  083%=      5-min Rain = 0
KQU1 250227Z 16006KT 14/11 A2987 RMK A01 T01400111  RH  083%=      5-min Rain = 0
KQU1 250228Z 16006KT 14/11 A2987 RMK A01 T01390112  RH  083%=      5-min Rain = 0
KQU1 250229Z 16006KT 14/11 A2987 RMK A01 T01390112  RH  084%=      5-min Rain = 0
KQU1 250230Z 17006KT 14/11 A2987 RMK A01 T01390113  RH  084%=      5-min Rain = 0
KQU1 250231Z 17006KT 14/11 A2987 RMK A01 T01400114  RH  084%=      5-min Rain = 0
KQU1 250232Z 17005KT 14/12 A2987 RMK A01 T01400115  RH  085%=      5-min Rain = 0
KQU1 250233Z 17005KT 14/12 A2987 RMK A01 T01410115  RH  085%=      5-min Rain = 0
KQU1 250234Z 18006KT 14/12 A2987 RMK A01 T01410116  RH  085%=      5-min Rain = 0
KQU1 250235Z 18006KT 14/12 A2988 RMK A01 T01420116  RH  084%=      5-min Rain = 0
KQU1 250236Z 17006KT 14/12 A2988 RMK A01 T01420116  RH  084%=      5-min Rain = 0
KQU1 250237Z 17006KT 14/12 A2988 RMK A01 T01430116  RH  084%=      5-min Rain = 0
KQU1 250238Z 17006KT 14/12 A2988 RMK A01 T01430116  RH  084%=      5-min Rain = 0
KQU1 250239Z 18006KT 14/12 A2988 RMK A01 T01420116  RH  084%=      5-min Rain = 0
KQU1 250240Z 18006KT 14/12 A2988 RMK A01 T01420117  RH  085%=      5-min Rain = 0
KQU1 250241Z 18006KT 14/12 A2988 RMK A01 T01420117  RH  085%=      5-min Rain = 0
KQU1 250242Z 18006KT 14/12 A2988 RMK A01 T01420117  RH  085%=      5-min Rain = 0
KQU1 250243Z 18005KT 14/12 A2988 RMK A01 T01410116  RH  085%=      5-min Rain = 0
KQU1 250244Z 18005KT 14/12 A2988 RMK A01 T01400116  RH  085%=      5-min Rain = 0
KQU1 250245Z 18005KT 14/12 A2988 RMK A01 T01390115  RH  086%=      5-min Rain = 0
KQU1 250246Z 18006KT 14/12 A2988 RMK A01 T01380115  RH  086%=      5-min Rain = 0
KQU1 250247Z 18006KT 14/12 A2988 RMK A01 T01370115  RH  086%=      5-min Rain = 0
KQU1 250248Z 18006KT 14/12 A2988 RMK A01 T01370115  RH  087%=      5-min Rain = 0
KQU1 250249Z 18006KT 14/12 A2988 RMK A01 T01360115  RH  087%=      5-min Rain = 0
KQU1 250250Z 18005KT 14/11 A2988 RMK A01 T01350114  RH  087%=      5-min Rain = 0
KQU1 250251Z 18005KT 14/11 A2988 RMK A01 T01350114  RH  087%=      5-min Rain = 0
KQU1 250252Z 19005KT 13/11 A2988 RMK A01 T01340114  RH  088%=      5-min Rain = 0
KQU1 250253Z 19006KT 13/11 A2988 RMK A01 T01340114  RH  088%=      5-min Rain = 0
KQU1 250254Z 19006KT 13/11 A2988 RMK A01 T01330114  RH  088%=      5-min Rain = 0
KQU1 250255Z 19005KT 13/11 A2988 RMK A01 T01330113  RH  088%=      5-min Rain = 0
KQU1 250256Z 19005KT 13/11 A2988 RMK A01 T01330113  RH  088%=      5-min Rain = 0
KQU1 250257Z 20005KT 13/11 A2988 RMK A01 T01320113  RH  088%=      5-min Rain = 0
KQU1 250258Z 19005KT 13/11 A2988 RMK A01 T01320112  RH  088%=      5-min Rain = 0
KQU1 250259Z 19005KT 13/11 A2988 RMK A01 T01310112  RH  088%=      5-min Rain = 0
KQU1 250300Z 19005KT 13/11 A2988 RMK A01 T01310112  RH  088%=      5-min Rain = 0
KQU1 250301Z 20006KT 13/11 A2988 RMK A01 T01310112  RH  088%=      5-min Rain = 0
KQU1 250302Z 20005KT 13/11 A2988 RMK A01 T01300112  RH  089%=      5-min Rain = 0
KQU1 250303Z 20005KT 13/11 A2988 RMK A01 T01300112  RH  089%=      5-min Rain = 0
KQU1 250304Z 20006KT 13/11 A2988 RMK A01 T01300111  RH  089%=      5-min Rain = 0
KQU1 250305Z 20006KT 13/11 A2988 RMK A01 T01290111  RH  089%=      5-min Rain = 0
KQU1 250306Z 20006KT 13/11 A2988 RMK A01 T01290111  RH  089%=      5-min Rain = 0
KQU1 250307Z 19006KT 13/11 A2988 RMK A01 T01280111  RH  089%=      5-min Rain = 0
KQU1 250308Z 20006KT 13/11 A2988 RMK A01 T01280110  RH  089%=      5-min Rain = 0
KQU1 250309Z 20006KT 13/11 A2988 RMK A01 T01270110  RH  089%=      5-min Rain = 0
KQU1 250310Z 20006KT 13/11 A2988 RMK A01 T01270111  RH  090%=      5-min Rain = 0
KQU1 250311Z 20007KT 13/11 A2988 RMK A01 T01270111  RH  090%=      5-min Rain = 0
KQU1 250312Z 20007KT 13/11 A2988 RMK A01 T01270111  RH  090%=      5-min Rain = 0
KQU1 250313Z 20008KT 13/11 A2988 RMK A01 T01270111  RH  090%=      5-min Rain = 0
KQU1 250314Z 20008KT 13/11 A2988 RMK A01 T01270112  RH  090%=      5-min Rain = 0
KQU1 250315Z 20008KT 13/11 A2988 RMK A01 T01280113  RH  091%=      5-min Rain = 0
KQU1 250316Z 20007KT 13/11 A2988 RMK A01 T01290114  RH  091%=      5-min Rain = 0
KQU1 250317Z 20007KT 13/11 A2988 RMK A01 T01290114  RH  090%=      5-min Rain = 0
KQU1 250318Z 20007KT 13/11 A2988 RMK A01 T01300114  RH  090%=      5-min Rain = 0
KQU1 250319Z 20007KT 13/11 A2988 RMK A01 T01310114  RH  090%=      5-min Rain = 0
KQU1 250320Z 20007KT 13/11 A2988 RMK A01 T01310114  RH  089%=      5-min Rain = 0
KQU1 250321Z 20006KT 13/11 A2988 RMK A01 T01320114  RH  089%=      5-min Rain = 0
KQU1 250322Z 20007KT 13/11 A2988 RMK A01 T01320114  RH  089%=      5-min Rain = 0
KQU1 250323Z 21007KT 13/11 A2988 RMK A01 T01310113  RH  089%=      5-min Rain = 0
KQU1 250324Z 21006KT 13/11 A2988 RMK A01 T01310113  RH  089%=      5-min Rain = 0
KQU1 250325Z 21006KT 13/11 A2988 RMK A01 T01300112  RH  089%=      5-min Rain = 0
KQU1 250326Z 21006KT 13/11 A2988 RMK A01 T01300112  RH  089%=      5-min Rain = 0
KQU1 250327Z 20006KT 13/11 A2988 RMK A01 T01300111  RH  089%=      5-min Rain = 0
KQU1 250328Z 20006KT 13/11 A2988 RMK A01 T01290111  RH  089%=      5-min Rain = 0
KQU1 250329Z 21006KT 13/11 A2988 RMK A01 T01290111  RH  089%=      5-min Rain = 0
KQU1 250330Z 20007KT 13/11 A2988 RMK A01 T01290111  RH  089%=      5-min Rain = 0
KQU1 250331Z 21007KT 13/11 A2988 RMK A01 T01290111  RH  089%=      5-min Rain = 0
KQU1 250332Z 20007KT 13/11 A2988 RMK A01 T01290110  RH  088%=      5-min Rain = 0
KQU1 250333Z 20007KT 13/11 A2988 RMK A01 T01280110  RH  088%=      5-min Rain = 0
KQU1 250334Z 21007KT 13/11 A2988 RMK A01 T01280109  RH  088%=      5-min Rain = 0
KQU1 250335Z 21007KT 13/11 A2988 RMK A01 T01270109  RH  088%=      5-min Rain = 0
KQU1 250336Z 20008KT 13/11 A2988 RMK A01 T01270108  RH  089%=      5-min Rain = 0
KQU1 250337Z 20008KT 13/11 A2988 RMK A01 T01260108  RH  089%=      5-min Rain = 0
KQU1 250338Z 20008KT 13/11 A2988 RMK A01 T01260108  RH  089%=      5-min Rain = 0
KQU1 250339Z 20008KT 13/11 A2988 RMK A01 T01250108  RH  089%=      5-min Rain = 0
KQU1 250340Z 20008KT 13/11 A2988 RMK A01 T01250109  RH  090%=      5-min Rain = 0
KQU1 250341Z 20008KT 13/11 A2988 RMK A01 T01260110  RH  090%=      5-min Rain = 0
KQU1 250342Z 20008KT 13/11 A2987 RMK A01 T01260110  RH  090%=      5-min Rain = 0
KQU1 250343Z 20008KT 13/11 A2987 RMK A01 T01260110  RH  090%=      5-min Rain = 0
KQU1 250344Z 21008KT 13/11 A2987 RMK A01 T01270110  RH  090%=      5-min Rain = 0
KQU1 250345Z 21008KT 13/11 A2987 RMK A01 T01270110  RH  090%=      5-min Rain = 0
KQU1 250346Z 21007KT 13/11 A2987 RMK A01 T01270110  RH  090%=      5-min Rain = 0
KQU1 250347Z 21007KT 13/11 A2987 RMK A01 T01270110  RH  090%=      5-min Rain = 0
KQU1 250348Z 21007KT 13/11 A2987 RMK A01 T01270110  RH  090%=      5-min Rain = 0
KQU1 250349Z 21007KT 13/11 A2987 RMK A01 T01270110  RH  089%=      5-min Rain = 0
KQU1 250350Z 21007KT 13/11 A2987 RMK A01 T01260109  RH  089%=      5-min Rain = 0
KQU1 250351Z 21007KT 13/11 A2987 RMK A01 T01260108  RH  089%=      5-min Rain = 0
KQU1 250352Z 21007KT 13/11 A2987 RMK A01 T01250108  RH  089%=      5-min Rain = 0
KQU1 250353Z 21007KT 13/11 A2987 RMK A01 T01250108  RH  089%=      5-min Rain = 0
KQU1 250354Z 22006KT 12/11 A2987 RMK A01 T01240108  RH  090%=      5-min Rain = 0
KQU1 250355Z 22006KT 12/11 A2987 RMK A01 T01240107  RH  090%=      5-min Rain = 0
KQU1 250356Z 22006KT 12/11 A2987 RMK A01 T01240107  RH  090%=      5-min Rain = 0
KQU1 250357Z 22006KT 12/11 A2987 RMK A01 T01230107  RH  090%=      5-min Rain = 0
KQU1 250358Z 22006KT 12/11 A2987 RMK A01 T01230107  RH  090%=      5-min Rain = 0
KQU1 250359Z 22006KT 12/11 A2987 RMK A01 T01230106  RH  090%=      5-min Rain = 0
KQU1 250400Z 22006KT 12/11 A2987 RMK A01 T01230107  RH  090%=      5-min Rain = 0
KQU1 250401Z 22006KT 12/11 A2987 RMK A01 T01230107  RH  090%=      5-min Rain = 0
KQU1 250402Z 22006KT 12/11 A2987 RMK A01 T01230107  RH  090%=      5-min Rain = 0
KQU1 250403Z 22006KT 12/11 A2987 RMK A01 T01230108  RH  090%=      5-min Rain = 0
KQU1 250404Z 21006KT 12/11 A2987 RMK A01 T01240108  RH  090%=      5-min Rain = 0
KQU1 250405Z 21006KT 13/11 A2987 RMK A01 T01250109  RH  090%=      5-min Rain = 0
KQU1 250406Z 20006KT 13/11 A2987 RMK A01 T01260109  RH  090%=      5-min Rain = 0
KQU1 250407Z 21005KT 13/11 A2987 RMK A01 T01260109  RH  089%=      5-min Rain = 0
KQU1 250408Z 21004KT 13/11 A2987 RMK A01 T01260109  RH  089%=      5-min Rain = 0
KQU1 250409Z 21004KT 13/11 A2987 RMK A01 T01260109  RH  089%=      5-min Rain = 0
KQU1 250410Z 21004KT 13/11 A2987 RMK A01 T01260108  RH  089%=      5-min Rain = 0
KQU1 250411Z 22005KT 13/11 A2987 RMK A01 T01250107  RH  089%=      5-min Rain = 0
KQU1 250412Z 22005KT 13/11 A2987 RMK A01 T01250107  RH  089%=      5-min Rain = 0
KQU1 250413Z 23004KT 12/11 A2987 RMK A01 T01240106  RH  089%=      5-min Rain = 0
KQU1 250414Z 22004KT 12/11 A2987 RMK A01 T01230106  RH  089%=      5-min Rain = 0
KQU1 250415Z 23005KT 12/11 A2987 RMK A01 T01230108  RH  090%=      5-min Rain = 0
KQU1 250416Z 23005KT 12/11 A2987 RMK A01 T01240108  RH  090%=      5-min Rain = 0
KQU1 250417Z 23006KT 12/11 A2987 RMK A01 T01240108  RH  090%=      5-min Rain = 0
KQU1 250418Z 23005KT 12/11 A2987 RMK A01 T01240107  RH  090%=      5-min Rain = 0
KQU1 250419Z 23006KT 12/11 A2987 RMK A01 T01240107  RH  090%=      5-min Rain = 0
KQU1 250420Z 23005KT 12/11 A2987 RMK A01 T01240107  RH  090%=      5-min Rain = 0
KQU1 250421Z 22006KT 12/11 A2987 RMK A01 T01240107  RH  089%=      5-min Rain = 0
KQU1 250422Z 22006KT 13/11 A2987 RMK A01 T01250107  RH  089%=      5-min Rain = 0
KQU1 250423Z 22006KT 13/11 A2987 RMK A01 T01250107  RH  089%=      5-min Rain = 0
KQU1 250424Z 23006KT 13/11 A2987 RMK A01 T01260108  RH  088%=      5-min Rain = 0
KQU1 250425Z 23006KT 13/11 A2987 RMK A01 T01280109  RH  088%=      5-min Rain = 0
KQU1 250426Z 22007KT 13/11 A2987 RMK A01 T01290108  RH  087%=      5-min Rain = 0
KQU1 250427Z 22007KT 13/11 A2987 RMK A01 T01290108  RH  087%=      5-min Rain = 0
KQU1 250428Z 23006KT 13/11 A2987 RMK A01 T01290108  RH  087%=      5-min Rain = 0
KQU1 250429Z 23006KT 13/11 A2987 RMK A01 T01300108  RH  087%=      5-min Rain = 0
KQU1 250430Z 23007KT 13/11 A2987 RMK A01 T01300108  RH  087%=      5-min Rain = 0
KQU1 250431Z 22007KT 13/11 A2987 RMK A01 T01300108  RH  086%=      5-min Rain = 0
KQU1 250432Z 22006KT 13/11 A2987 RMK A01 T01310108  RH  086%=      5-min Rain = 0
KQU1 250433Z 23006KT 13/11 A2987 RMK A01 T01310108  RH  086%=      5-min Rain = 0
KQU1 250434Z 23006KT 13/11 A2987 RMK A01 T01310108  RH  086%=      5-min Rain = 0
KQU1 250435Z 23006KT 13/11 A2987 RMK A01 T01310108  RH  086%=      5-min Rain = 0
KQU1 250436Z 23007KT 13/11 A2987 RMK A01 T01310107  RH  085%=      5-min Rain = 0
KQU1 250437Z 23007KT 13/11 A2987 RMK A01 T01310107  RH  085%=      5-min Rain = 0
KQU1 250438Z 23007KT 13/11 A2987 RMK A01 T01310107  RH  086%=      5-min Rain = 0
KQU1 250439Z 23007KT 13/11 A2987 RMK A01 T01310108  RH  086%=      5-min Rain = 0
KQU1 250440Z 22007KT 13/11 A2987 RMK A01 T01310108  RH  085%=      5-min Rain = 0
KQU1 250441Z 23007KT 13/11 A2987 RMK A01 T01320107  RH  085%=      5-min Rain = 0
KQU1 250442Z 23007KT 13/11 A2987 RMK A01 T01320107  RH  085%=      5-min Rain = 0
KQU1 250443Z 23007KT 13/11 A2987 RMK A01 T01330107  RH  084%=      5-min Rain = 0
KQU1 250444Z 23007KT 13/11 A2987 RMK A01 T01330107  RH  084%=      5-min Rain = 0
KQU1 250445Z 23007KT 13/11 A2987 RMK A01 T01330107  RH  084%=      5-min Rain = 0
KQU1 250446Z 23007KT 13/11 A2987 RMK A01 T01330107  RH  084%=      5-min Rain = 0
KQU1 250447Z 23007KT 13/11 A2987 RMK A01 T01340107  RH  084%=      5-min Rain = 0
KQU1 250448Z 23007KT 13/11 A2987 RMK A01 T01340107  RH  084%=      5-min Rain = 0
KQU1 250449Z 22007KT 14/11 A2987 RMK A01 T01350107  RH  083%=      5-min Rain = 0
KQU1 250450Z 22007KT 14/11 A2987 RMK A01 T01350107  RH  083%=      5-min Rain = 0
KQU1 250451Z 22007KT 14/11 A2987 RMK A01 T01350107  RH  083%=      5-min Rain = 0
KQU1 250452Z 22007KT 14/11 A2987 RMK A01 T01350107  RH  083%=      5-min Rain = 0
KQU1 250453Z 22007KT 14/11 A2987 RMK A01 T01350107  RH  083%=      5-min Rain = 0
KQU1 250454Z 23006KT 14/11 A2987 RMK A01 T01350106  RH  083%=      5-min Rain = 0
KQU1 250455Z 23006KT 13/11 A2987 RMK A01 T01340106  RH  083%=      5-min Rain = 0
KQU1 250456Z 23006KT 13/11 A2987 RMK A01 T01340106  RH  083%=      5-min Rain = 0
KQU1 250457Z 24006KT 13/11 A2987 RMK A01 T01340105  RH  083%=      5-min Rain = 0
KQU1 250458Z 24007KT 13/11 A2987 RMK A01 T01340106  RH  083%=      5-min Rain = 0
KQU1 250459Z 24006KT 13/11 A2987 RMK A01 T01340106  RH  083%=      5-min Rain = 0

Page generated in 0.0333 seconds.